<?xml version="1.0" encoding="UTF-8" standalone="no" ?>
<gpx xmlns="http://www.topografix.com/GPX/1/1" xmlns:xsi="http://www.w3.org/2001/XMLSchema-instance" xsi:schemaLocation="http://www.topografix.com/GPX/1/1 http://www.topografix.com/GPX/1/1/gpx.xsd" version="1.1" creator="VisuGPX - https://www.visugpx.com">
  <metadata>
    <name>Mont Granier</name>
    <desc><![CDATA[Mont Granier par la Grotte Colon]]></desc>
  </metadata>
  <trk>
    <name><![CDATA[2015-02-11 08:13]]></name>
    <desc><![CDATA[<h1>OruxMaps</h1><br /><hr align="center" width="480" style="height: 2px; width: 517px"/><h2>Nom: 2015-02-11 08:13</h2><br /><p>Temps de départ: 02/11/2015 08:13</p><p>Temps d'arrivée: 02/11/2015 16:46</p><p>Distance: 15,9km (08:33)</p><p>Temps déplacement: 03:43</p><p>Vitesse moyenne: 1,9km/h</p><p>Vitesse moyenne: 4,3km/h</p><p>Vitess Max.: 43,2km/h</p><p>Altitude minimale: 837m</p><p>Altitude maximale: 1938m</p><p>Vitesse d'élévation: 403,6m/h</p><p>Vitesse de descente: -436,9m/h</p><p>Gain Altitude: 1775m</p><p>Perte Altitude: -1637m</p><p>Temps d'élévation: 04:23</p><p>Temps de descente: 03:44</p><hr align="center" width="480" style="height: 2px; width: 517px"/>]]></desc>
    <trkseg>
      <trkpt lat="45.47771" lon="5.93813">
        <ele>842.9</ele>
        <time>2015-02-11T07:13:06Z</time>
      </trkpt>
      <trkpt lat="45.47755" lon="5.93825">
        <ele>841.2</ele>
        <time>2015-02-11T07:17:34Z</time>
      </trkpt>
      <trkpt lat="45.47737" lon="5.93816">
        <ele>837.68</ele>
        <time>2015-02-11T07:20:10Z</time>
      </trkpt>
      <trkpt lat="45.47719" lon="5.93809">
        <ele>839.79</ele>
        <time>2015-02-11T07:20:31Z</time>
      </trkpt>
      <trkpt lat="45.47713" lon="5.93784">
        <ele>849.75</ele>
        <time>2015-02-11T07:21:16Z</time>
      </trkpt>
      <trkpt lat="45.47707" lon="5.93759">
        <ele>855.64</ele>
        <time>2015-02-11T07:21:57Z</time>
      </trkpt>
      <trkpt lat="45.4769" lon="5.93754">
        <ele>857.13</ele>
        <time>2015-02-11T07:22:20Z</time>
      </trkpt>
      <trkpt lat="45.47671" lon="5.93753">
        <ele>855.59</ele>
        <time>2015-02-11T07:22:50Z</time>
      </trkpt>
      <trkpt lat="45.47654" lon="5.93747">
        <ele>853.44</ele>
        <time>2015-02-11T07:23:13Z</time>
      </trkpt>
      <trkpt lat="45.47636" lon="5.93758">
        <ele>861.13</ele>
        <time>2015-02-11T07:23:42Z</time>
      </trkpt>
      <trkpt lat="45.47622" lon="5.93774">
        <ele>864.55</ele>
        <time>2015-02-11T07:23:57Z</time>
      </trkpt>
      <trkpt lat="45.47608" lon="5.93792">
        <ele>868.48</ele>
        <time>2015-02-11T07:24:14Z</time>
      </trkpt>
      <trkpt lat="45.4759" lon="5.93798">
        <ele>863.75</ele>
        <time>2015-02-11T07:24:28Z</time>
      </trkpt>
      <trkpt lat="45.47578" lon="5.93818">
        <ele>862.99</ele>
        <time>2015-02-11T07:24:44Z</time>
      </trkpt>
      <trkpt lat="45.47564" lon="5.93835">
        <ele>860.8</ele>
        <time>2015-02-11T07:25:01Z</time>
      </trkpt>
      <trkpt lat="45.47554" lon="5.93858">
        <ele>870.08</ele>
        <time>2015-02-11T07:25:16Z</time>
      </trkpt>
      <trkpt lat="45.47539" lon="5.93876">
        <ele>871.97</ele>
        <time>2015-02-11T07:25:31Z</time>
      </trkpt>
      <trkpt lat="45.47527" lon="5.93895">
        <ele>872.5</ele>
        <time>2015-02-11T07:25:46Z</time>
      </trkpt>
      <trkpt lat="45.47511" lon="5.9391">
        <ele>870.94</ele>
        <time>2015-02-11T07:26:03Z</time>
      </trkpt>
      <trkpt lat="45.47496" lon="5.93925">
        <ele>871.52</ele>
        <time>2015-02-11T07:26:22Z</time>
      </trkpt>
      <trkpt lat="45.47483" lon="5.93944">
        <ele>874.47</ele>
        <time>2015-02-11T07:26:39Z</time>
      </trkpt>
      <trkpt lat="45.47477" lon="5.93969">
        <ele>875.01</ele>
        <time>2015-02-11T07:26:52Z</time>
      </trkpt>
      <trkpt lat="45.47477" lon="5.93996">
        <ele>871.18</ele>
        <time>2015-02-11T07:27:10Z</time>
      </trkpt>
      <trkpt lat="45.47484" lon="5.94021">
        <ele>871.62</ele>
        <time>2015-02-11T07:27:24Z</time>
      </trkpt>
      <trkpt lat="45.47481" lon="5.94047">
        <ele>871.71</ele>
        <time>2015-02-11T07:27:39Z</time>
      </trkpt>
      <trkpt lat="45.47471" lon="5.94069">
        <ele>874.59</ele>
        <time>2015-02-11T07:27:57Z</time>
      </trkpt>
      <trkpt lat="45.47464" lon="5.94093">
        <ele>878.07</ele>
        <time>2015-02-11T07:28:14Z</time>
      </trkpt>
      <trkpt lat="45.4746" lon="5.94119">
        <ele>876.05</ele>
        <time>2015-02-11T07:28:30Z</time>
      </trkpt>
      <trkpt lat="45.47463" lon="5.94145">
        <ele>874.65</ele>
        <time>2015-02-11T07:28:46Z</time>
      </trkpt>
      <trkpt lat="45.47462" lon="5.94172">
        <ele>879.39</ele>
        <time>2015-02-11T07:29:03Z</time>
      </trkpt>
      <trkpt lat="45.47457" lon="5.94198">
        <ele>877.53</ele>
        <time>2015-02-11T07:29:19Z</time>
      </trkpt>
      <trkpt lat="45.47447" lon="5.94221">
        <ele>882.69</ele>
        <time>2015-02-11T07:29:33Z</time>
      </trkpt>
      <trkpt lat="45.47436" lon="5.94242">
        <ele>882</ele>
        <time>2015-02-11T07:29:47Z</time>
      </trkpt>
      <trkpt lat="45.47424" lon="5.94263">
        <ele>882.15</ele>
        <time>2015-02-11T07:30:01Z</time>
      </trkpt>
      <trkpt lat="45.47417" lon="5.94288">
        <ele>885.05</ele>
        <time>2015-02-11T07:30:18Z</time>
      </trkpt>
      <trkpt lat="45.4741" lon="5.94312">
        <ele>879.98</ele>
        <time>2015-02-11T07:30:40Z</time>
      </trkpt>
      <trkpt lat="45.4741" lon="5.94286">
        <ele>892.72</ele>
        <time>2015-02-11T07:32:09Z</time>
      </trkpt>
      <trkpt lat="45.47395" lon="5.943">
        <ele>894.48</ele>
        <time>2015-02-11T07:33:09Z</time>
      </trkpt>
      <trkpt lat="45.47377" lon="5.94297">
        <ele>910.66</ele>
        <time>2015-02-11T07:34:05Z</time>
      </trkpt>
      <trkpt lat="45.47361" lon="5.94309">
        <ele>925.89</ele>
        <time>2015-02-11T07:35:23Z</time>
      </trkpt>
      <trkpt lat="45.47359" lon="5.94335">
        <ele>929.5</ele>
        <time>2015-02-11T07:35:45Z</time>
      </trkpt>
      <trkpt lat="45.47347" lon="5.94354">
        <ele>931.73</ele>
        <time>2015-02-11T07:36:11Z</time>
      </trkpt>
      <trkpt lat="45.47337" lon="5.94377">
        <ele>931.7</ele>
        <time>2015-02-11T07:36:39Z</time>
      </trkpt>
      <trkpt lat="45.47326" lon="5.94398">
        <ele>936.28</ele>
        <time>2015-02-11T07:37:01Z</time>
      </trkpt>
      <trkpt lat="45.47317" lon="5.94421">
        <ele>939.89</ele>
        <time>2015-02-11T07:37:24Z</time>
      </trkpt>
      <trkpt lat="45.47317" lon="5.94447">
        <ele>944.4</ele>
        <time>2015-02-11T07:37:47Z</time>
      </trkpt>
      <trkpt lat="45.47314" lon="5.94473">
        <ele>951.36</ele>
        <time>2015-02-11T07:38:21Z</time>
      </trkpt>
      <trkpt lat="45.47311" lon="5.94499">
        <ele>952.25</ele>
        <time>2015-02-11T07:38:50Z</time>
      </trkpt>
      <trkpt lat="45.47293" lon="5.94495">
        <ele>964.69</ele>
        <time>2015-02-11T07:40:05Z</time>
      </trkpt>
      <trkpt lat="45.47275" lon="5.94489">
        <ele>970.78</ele>
        <time>2015-02-11T07:40:27Z</time>
      </trkpt>
      <trkpt lat="45.47257" lon="5.94495">
        <ele>973.75</ele>
        <time>2015-02-11T07:41:04Z</time>
      </trkpt>
      <trkpt lat="45.47239" lon="5.945">
        <ele>980.19</ele>
        <time>2015-02-11T07:41:31Z</time>
      </trkpt>
      <trkpt lat="45.47221" lon="5.94504">
        <ele>984.68</ele>
        <time>2015-02-11T07:42:03Z</time>
      </trkpt>
      <trkpt lat="45.47203" lon="5.94503">
        <ele>993.86</ele>
        <time>2015-02-11T07:42:46Z</time>
      </trkpt>
      <trkpt lat="45.47193" lon="5.94482">
        <ele>1001.05</ele>
        <time>2015-02-11T07:43:36Z</time>
      </trkpt>
      <trkpt lat="45.47177" lon="5.94469">
        <ele>1000.73</ele>
        <time>2015-02-11T07:44:09Z</time>
      </trkpt>
      <trkpt lat="45.47159" lon="5.94466">
        <ele>1004.83</ele>
        <time>2015-02-11T07:44:36Z</time>
      </trkpt>
      <trkpt lat="45.4714" lon="5.94468">
        <ele>1009.37</ele>
        <time>2015-02-11T07:45:17Z</time>
      </trkpt>
      <trkpt lat="45.47122" lon="5.94463">
        <ele>1007.41</ele>
        <time>2015-02-11T07:45:39Z</time>
      </trkpt>
      <trkpt lat="45.47105" lon="5.94473">
        <ele>1008.81</ele>
        <time>2015-02-11T07:46:01Z</time>
      </trkpt>
      <trkpt lat="45.47087" lon="5.94475">
        <ele>1010.26</ele>
        <time>2015-02-11T07:46:22Z</time>
      </trkpt>
      <trkpt lat="45.47069" lon="5.94473">
        <ele>1010.34</ele>
        <time>2015-02-11T07:46:42Z</time>
      </trkpt>
      <trkpt lat="45.47053" lon="5.94461">
        <ele>1015.77</ele>
        <time>2015-02-11T07:47:06Z</time>
      </trkpt>
      <trkpt lat="45.47035" lon="5.94459">
        <ele>1023.72</ele>
        <time>2015-02-11T07:47:44Z</time>
      </trkpt>
      <trkpt lat="45.47019" lon="5.94447">
        <ele>1033.1</ele>
        <time>2015-02-11T07:48:59Z</time>
      </trkpt>
      <trkpt lat="45.47011" lon="5.94424">
        <ele>1038.62</ele>
        <time>2015-02-11T07:49:34Z</time>
      </trkpt>
      <trkpt lat="45.47016" lon="5.94399">
        <ele>1043.5</ele>
        <time>2015-02-11T07:49:58Z</time>
      </trkpt>
      <trkpt lat="45.47027" lon="5.94377">
        <ele>1050.47</ele>
        <time>2015-02-11T07:50:46Z</time>
      </trkpt>
      <trkpt lat="45.47044" lon="5.94369">
        <ele>1049.91</ele>
        <time>2015-02-11T07:51:21Z</time>
      </trkpt>
      <trkpt lat="45.4706" lon="5.94354">
        <ele>1057.62</ele>
        <time>2015-02-11T07:51:47Z</time>
      </trkpt>
      <trkpt lat="45.47076" lon="5.94342">
        <ele>1058.04</ele>
        <time>2015-02-11T07:52:05Z</time>
      </trkpt>
      <trkpt lat="45.47087" lon="5.94322">
        <ele>1065.99</ele>
        <time>2015-02-11T07:52:32Z</time>
      </trkpt>
      <trkpt lat="45.47099" lon="5.94302">
        <ele>1067.3</ele>
        <time>2015-02-11T07:52:58Z</time>
      </trkpt>
      <trkpt lat="45.47115" lon="5.9429">
        <ele>1073.62</ele>
        <time>2015-02-11T07:53:26Z</time>
      </trkpt>
      <trkpt lat="45.47128" lon="5.94271">
        <ele>1070.39</ele>
        <time>2015-02-11T07:53:56Z</time>
      </trkpt>
      <trkpt lat="45.4714" lon="5.94252">
        <ele>1071.07</ele>
        <time>2015-02-11T07:54:16Z</time>
      </trkpt>
      <trkpt lat="45.4715" lon="5.9423">
        <ele>1083.61</ele>
        <time>2015-02-11T07:54:40Z</time>
      </trkpt>
      <trkpt lat="45.47153" lon="5.94205">
        <ele>1088.18</ele>
        <time>2015-02-11T07:55:11Z</time>
      </trkpt>
      <trkpt lat="45.47138" lon="5.9419">
        <ele>1089.76</ele>
        <time>2015-02-11T07:58:50Z</time>
      </trkpt>
      <trkpt lat="45.4712" lon="5.94194">
        <ele>1095.61</ele>
        <time>2015-02-11T07:59:13Z</time>
      </trkpt>
      <trkpt lat="45.47101" lon="5.94195">
        <ele>1098.08</ele>
        <time>2015-02-11T07:59:43Z</time>
      </trkpt>
      <trkpt lat="45.47084" lon="5.94189">
        <ele>1096.66</ele>
        <time>2015-02-11T08:00:13Z</time>
      </trkpt>
      <trkpt lat="45.47065" lon="5.94187">
        <ele>1110.07</ele>
        <time>2015-02-11T08:00:48Z</time>
      </trkpt>
      <trkpt lat="45.47047" lon="5.94182">
        <ele>1113.61</ele>
        <time>2015-02-11T08:01:19Z</time>
      </trkpt>
      <trkpt lat="45.47029" lon="5.94184">
        <ele>1122.88</ele>
        <time>2015-02-11T08:01:45Z</time>
      </trkpt>
      <trkpt lat="45.4701" lon="5.94179">
        <ele>1124.16</ele>
        <time>2015-02-11T08:02:13Z</time>
      </trkpt>
      <trkpt lat="45.47002" lon="5.94156">
        <ele>1134.83</ele>
        <time>2015-02-11T08:03:11Z</time>
      </trkpt>
      <trkpt lat="45.47013" lon="5.94135">
        <ele>1142.85</ele>
        <time>2015-02-11T08:03:49Z</time>
      </trkpt>
      <trkpt lat="45.47022" lon="5.94112">
        <ele>1145.99</ele>
        <time>2015-02-11T08:04:22Z</time>
      </trkpt>
      <trkpt lat="45.47007" lon="5.94096">
        <ele>1152.81</ele>
        <time>2015-02-11T08:05:14Z</time>
      </trkpt>
      <trkpt lat="45.47007" lon="5.94071">
        <ele>1159</ele>
        <time>2015-02-11T08:06:05Z</time>
      </trkpt>
      <trkpt lat="45.46989" lon="5.94069">
        <ele>1165.59</ele>
        <time>2015-02-11T08:06:26Z</time>
      </trkpt>
      <trkpt lat="45.46971" lon="5.94075">
        <ele>1165.91</ele>
        <time>2015-02-11T08:06:53Z</time>
      </trkpt>
      <trkpt lat="45.46961" lon="5.94054">
        <ele>1172.84</ele>
        <time>2015-02-11T08:07:53Z</time>
      </trkpt>
      <trkpt lat="45.46944" lon="5.94042">
        <ele>1173.12</ele>
        <time>2015-02-11T08:08:22Z</time>
      </trkpt>
      <trkpt lat="45.46926" lon="5.94045">
        <ele>1184.82</ele>
        <time>2015-02-11T08:08:46Z</time>
      </trkpt>
      <trkpt lat="45.46917" lon="5.94022">
        <ele>1191.58</ele>
        <time>2015-02-11T08:09:59Z</time>
      </trkpt>
      <trkpt lat="45.46909" lon="5.93999">
        <ele>1204.81</ele>
        <time>2015-02-11T08:11:34Z</time>
      </trkpt>
      <trkpt lat="45.46892" lon="5.93991">
        <ele>1209.08</ele>
        <time>2015-02-11T08:12:01Z</time>
      </trkpt>
      <trkpt lat="45.46873" lon="5.93997">
        <ele>1214.2</ele>
        <time>2015-02-11T08:12:29Z</time>
      </trkpt>
      <trkpt lat="45.46855" lon="5.93996">
        <ele>1219.56</ele>
        <time>2015-02-11T08:13:02Z</time>
      </trkpt>
      <trkpt lat="45.46837" lon="5.93993">
        <ele>1219.55</ele>
        <time>2015-02-11T08:13:29Z</time>
      </trkpt>
      <trkpt lat="45.46821" lon="5.94005">
        <ele>1224.11</ele>
        <time>2015-02-11T08:13:54Z</time>
      </trkpt>
      <trkpt lat="45.46803" lon="5.9401">
        <ele>1226.84</ele>
        <time>2015-02-11T08:14:14Z</time>
      </trkpt>
      <trkpt lat="45.46786" lon="5.94019">
        <ele>1232.71</ele>
        <time>2015-02-11T08:14:37Z</time>
      </trkpt>
      <trkpt lat="45.46767" lon="5.9402">
        <ele>1238.73</ele>
        <time>2015-02-11T08:15:08Z</time>
      </trkpt>
      <trkpt lat="45.46766" lon="5.93994">
        <ele>1243.48</ele>
        <time>2015-02-11T08:15:53Z</time>
      </trkpt>
      <trkpt lat="45.46775" lon="5.93971">
        <ele>1249.03</ele>
        <time>2015-02-11T08:16:27Z</time>
      </trkpt>
      <trkpt lat="45.46784" lon="5.93949">
        <ele>1259.62</ele>
        <time>2015-02-11T08:16:59Z</time>
      </trkpt>
      <trkpt lat="45.46792" lon="5.93925">
        <ele>1266.69</ele>
        <time>2015-02-11T08:17:34Z</time>
      </trkpt>
      <trkpt lat="45.46777" lon="5.9391">
        <ele>1272.9</ele>
        <time>2015-02-11T08:18:22Z</time>
      </trkpt>
      <trkpt lat="45.46759" lon="5.93911">
        <ele>1272.75</ele>
        <time>2015-02-11T08:18:49Z</time>
      </trkpt>
      <trkpt lat="45.4674" lon="5.93911">
        <ele>1276.8</ele>
        <time>2015-02-11T08:19:19Z</time>
      </trkpt>
      <trkpt lat="45.46722" lon="5.93916">
        <ele>1282.44</ele>
        <time>2015-02-11T08:19:47Z</time>
      </trkpt>
      <trkpt lat="45.46704" lon="5.93921">
        <ele>1287.81</ele>
        <time>2015-02-11T08:20:12Z</time>
      </trkpt>
      <trkpt lat="45.46686" lon="5.93923">
        <ele>1292.05</ele>
        <time>2015-02-11T08:20:38Z</time>
      </trkpt>
      <trkpt lat="45.46667" lon="5.93924">
        <ele>1292.46</ele>
        <time>2015-02-11T08:21:00Z</time>
      </trkpt>
      <trkpt lat="45.46649" lon="5.93923">
        <ele>1295.84</ele>
        <time>2015-02-11T08:21:24Z</time>
      </trkpt>
      <trkpt lat="45.46658" lon="5.939">
        <ele>1310.73</ele>
        <time>2015-02-11T08:22:22Z</time>
      </trkpt>
      <trkpt lat="45.46653" lon="5.93875">
        <ele>1317.25</ele>
        <time>2015-02-11T08:23:23Z</time>
      </trkpt>
      <trkpt lat="45.46639" lon="5.9386">
        <ele>1322.85</ele>
        <time>2015-02-11T08:24:26Z</time>
      </trkpt>
      <trkpt lat="45.46633" lon="5.93835">
        <ele>1341.42</ele>
        <time>2015-02-11T08:25:47Z</time>
      </trkpt>
      <trkpt lat="45.46619" lon="5.93818">
        <ele>1348.75</ele>
        <time>2015-02-11T08:26:41Z</time>
      </trkpt>
      <trkpt lat="45.46609" lon="5.93797">
        <ele>1361.7</ele>
        <time>2015-02-11T08:27:37Z</time>
      </trkpt>
      <trkpt lat="45.46602" lon="5.93772">
        <ele>1375.01</ele>
        <time>2015-02-11T08:28:38Z</time>
      </trkpt>
      <trkpt lat="45.46595" lon="5.93749">
        <ele>1381.64</ele>
        <time>2015-02-11T08:29:44Z</time>
      </trkpt>
      <trkpt lat="45.46593" lon="5.93723">
        <ele>1393</ele>
        <time>2015-02-11T08:30:58Z</time>
      </trkpt>
      <trkpt lat="45.46586" lon="5.93699">
        <ele>1402.82</ele>
        <time>2015-02-11T08:31:58Z</time>
      </trkpt>
      <trkpt lat="45.46588" lon="5.93673">
        <ele>1419.3</ele>
        <time>2015-02-11T08:32:57Z</time>
      </trkpt>
      <trkpt lat="45.46577" lon="5.93653">
        <ele>1435.1</ele>
        <time>2015-02-11T08:34:34Z</time>
      </trkpt>
      <trkpt lat="45.4658" lon="5.93627">
        <ele>1441.9</ele>
        <time>2015-02-11T08:35:26Z</time>
      </trkpt>
      <trkpt lat="45.46568" lon="5.93607">
        <ele>1450.57</ele>
        <time>2015-02-11T08:36:56Z</time>
      </trkpt>
      <trkpt lat="45.46552" lon="5.93596">
        <ele>1459.49</ele>
        <time>2015-02-11T08:38:12Z</time>
      </trkpt>
      <trkpt lat="45.46552" lon="5.9357">
        <ele>1477.26</ele>
        <time>2015-02-11T08:39:28Z</time>
      </trkpt>
      <trkpt lat="45.46551" lon="5.93544">
        <ele>1489.82</ele>
        <time>2015-02-11T08:41:47Z</time>
      </trkpt>
      <trkpt lat="45.46553" lon="5.93519">
        <ele>1496.84</ele>
        <time>2015-02-11T08:43:14Z</time>
      </trkpt>
      <trkpt lat="45.46562" lon="5.93496">
        <ele>1506.08</ele>
        <time>2015-02-11T08:44:34Z</time>
      </trkpt>
      <trkpt lat="45.46573" lon="5.93474">
        <ele>1508.88</ele>
        <time>2015-02-11T08:45:21Z</time>
      </trkpt>
      <trkpt lat="45.46574" lon="5.93448">
        <ele>1530.16</ele>
        <time>2015-02-11T08:48:44Z</time>
      </trkpt>
      <trkpt lat="45.4656" lon="5.93464">
        <ele>1534.72</ele>
        <time>2015-02-11T08:49:41Z</time>
      </trkpt>
      <trkpt lat="45.46549" lon="5.93486">
        <ele>1538.42</ele>
        <time>2015-02-11T08:50:58Z</time>
      </trkpt>
      <trkpt lat="45.46531" lon="5.93492">
        <ele>1540.4</ele>
        <time>2015-02-11T08:51:24Z</time>
      </trkpt>
      <trkpt lat="45.46517" lon="5.93508">
        <ele>1538.72</ele>
        <time>2015-02-11T08:52:02Z</time>
      </trkpt>
      <trkpt lat="45.46501" lon="5.93522">
        <ele>1547.63</ele>
        <time>2015-02-11T08:53:44Z</time>
      </trkpt>
      <trkpt lat="45.46483" lon="5.93522">
        <ele>1561.24</ele>
        <time>2015-02-11T08:54:37Z</time>
      </trkpt>
      <trkpt lat="45.46465" lon="5.93517">
        <ele>1563.65</ele>
        <time>2015-02-11T08:55:08Z</time>
      </trkpt>
      <trkpt lat="45.46448" lon="5.93529">
        <ele>1575.25</ele>
        <time>2015-02-11T08:55:59Z</time>
      </trkpt>
      <trkpt lat="45.4643" lon="5.93528">
        <ele>1577.63</ele>
        <time>2015-02-11T08:56:57Z</time>
      </trkpt>
      <trkpt lat="45.46412" lon="5.93535">
        <ele>1583.09</ele>
        <time>2015-02-11T08:57:37Z</time>
      </trkpt>
      <trkpt lat="45.46396" lon="5.93546">
        <ele>1591</ele>
        <time>2015-02-11T08:58:20Z</time>
      </trkpt>
      <trkpt lat="45.46381" lon="5.93562">
        <ele>1602.01</ele>
        <time>2015-02-11T08:59:22Z</time>
      </trkpt>
      <trkpt lat="45.46371" lon="5.93583">
        <ele>1607.94</ele>
        <time>2015-02-11T09:00:16Z</time>
      </trkpt>
      <trkpt lat="45.4636" lon="5.93605">
        <ele>1607.88</ele>
        <time>2015-02-11T09:00:55Z</time>
      </trkpt>
      <trkpt lat="45.46346" lon="5.9362">
        <ele>1610.77</ele>
        <time>2015-02-11T09:04:55Z</time>
      </trkpt>
      <trkpt lat="45.46329" lon="5.93632">
        <ele>1611.25</ele>
        <time>2015-02-11T09:06:14Z</time>
      </trkpt>
      <trkpt lat="45.46314" lon="5.93646">
        <ele>1616.97</ele>
        <time>2015-02-11T09:08:12Z</time>
      </trkpt>
      <trkpt lat="45.46303" lon="5.93625">
        <ele>1610.38</ele>
        <time>2015-02-11T09:09:09Z</time>
      </trkpt>
      <trkpt lat="45.4629" lon="5.93607">
        <ele>1614.69</ele>
        <time>2015-02-11T09:13:39Z</time>
      </trkpt>
      <trkpt lat="45.46277" lon="5.93588">
        <ele>1614.14</ele>
        <time>2015-02-11T09:14:21Z</time>
      </trkpt>
      <trkpt lat="45.46267" lon="5.93566">
        <ele>1625.78</ele>
        <time>2015-02-11T09:15:17Z</time>
      </trkpt>
      <trkpt lat="45.46252" lon="5.93552">
        <ele>1627.92</ele>
        <time>2015-02-11T09:15:44Z</time>
      </trkpt>
      <trkpt lat="45.46237" lon="5.93537">
        <ele>1633.89</ele>
        <time>2015-02-11T09:16:09Z</time>
      </trkpt>
      <trkpt lat="45.46223" lon="5.9352">
        <ele>1637.25</ele>
        <time>2015-02-11T09:16:36Z</time>
      </trkpt>
      <trkpt lat="45.46211" lon="5.935">
        <ele>1646.65</ele>
        <time>2015-02-11T09:17:02Z</time>
      </trkpt>
      <trkpt lat="45.46208" lon="5.93474">
        <ele>1654.74</ele>
        <time>2015-02-11T09:17:40Z</time>
      </trkpt>
      <trkpt lat="45.46202" lon="5.93449">
        <ele>1661.81</ele>
        <time>2015-02-11T09:18:19Z</time>
      </trkpt>
      <trkpt lat="45.46193" lon="5.93427">
        <ele>1664.88</ele>
        <time>2015-02-11T09:18:46Z</time>
      </trkpt>
      <trkpt lat="45.46179" lon="5.9341">
        <ele>1666.81</ele>
        <time>2015-02-11T09:24:51Z</time>
      </trkpt>
      <trkpt lat="45.46178" lon="5.93384">
        <ele>1676.25</ele>
        <time>2015-02-11T09:25:48Z</time>
      </trkpt>
      <trkpt lat="45.46195" lon="5.93373">
        <ele>1682.24</ele>
        <time>2015-02-11T09:26:26Z</time>
      </trkpt>
      <trkpt lat="45.46178" lon="5.93364">
        <ele>1687.89</ele>
        <time>2015-02-11T09:26:58Z</time>
      </trkpt>
      <trkpt lat="45.46165" lon="5.93346">
        <ele>1690.37</ele>
        <time>2015-02-11T09:27:41Z</time>
      </trkpt>
      <trkpt lat="45.46165" lon="5.9332">
        <ele>1698.86</ele>
        <time>2015-02-11T09:28:06Z</time>
      </trkpt>
      <trkpt lat="45.46158" lon="5.93295">
        <ele>1705.11</ele>
        <time>2015-02-11T09:28:32Z</time>
      </trkpt>
      <trkpt lat="45.46176" lon="5.93294">
        <ele>1709.09</ele>
        <time>2015-02-11T09:29:17Z</time>
      </trkpt>
      <trkpt lat="45.46193" lon="5.93287">
        <ele>1720.3</ele>
        <time>2015-02-11T09:30:12Z</time>
      </trkpt>
      <trkpt lat="45.46206" lon="5.93306">
        <ele>1725.32</ele>
        <time>2015-02-11T09:30:49Z</time>
      </trkpt>
      <trkpt lat="45.46223" lon="5.93316">
        <ele>1731.91</ele>
        <time>2015-02-11T09:32:19Z</time>
      </trkpt>
      <trkpt lat="45.46232" lon="5.93294">
        <ele>1740.94</ele>
        <time>2015-02-11T09:33:21Z</time>
      </trkpt>
      <trkpt lat="45.4624" lon="5.9327">
        <ele>1752.72</ele>
        <time>2015-02-11T09:34:40Z</time>
      </trkpt>
      <trkpt lat="45.46231" lon="5.93248">
        <ele>1758.67</ele>
        <time>2015-02-11T09:35:12Z</time>
      </trkpt>
      <trkpt lat="45.46224" lon="5.93223">
        <ele>1761.82</ele>
        <time>2015-02-11T09:35:39Z</time>
      </trkpt>
      <trkpt lat="45.46231" lon="5.93198">
        <ele>1760.88</ele>
        <time>2015-02-11T09:36:06Z</time>
      </trkpt>
      <trkpt lat="45.46243" lon="5.93179">
        <ele>1766.3</ele>
        <time>2015-02-11T09:36:48Z</time>
      </trkpt>
      <trkpt lat="45.46254" lon="5.93157">
        <ele>1771.85</ele>
        <time>2015-02-11T09:37:08Z</time>
      </trkpt>
      <trkpt lat="45.46259" lon="5.93131">
        <ele>1770.62</ele>
        <time>2015-02-11T09:37:31Z</time>
      </trkpt>
      <trkpt lat="45.46271" lon="5.93111">
        <ele>1786.74</ele>
        <time>2015-02-11T09:38:33Z</time>
      </trkpt>
      <trkpt lat="45.4628" lon="5.93088">
        <ele>1790.8</ele>
        <time>2015-02-11T09:38:56Z</time>
      </trkpt>
      <trkpt lat="45.46291" lon="5.93067">
        <ele>1789.85</ele>
        <time>2015-02-11T09:39:27Z</time>
      </trkpt>
      <trkpt lat="45.46301" lon="5.93045">
        <ele>1792.6</ele>
        <time>2015-02-11T09:39:44Z</time>
      </trkpt>
      <trkpt lat="45.46311" lon="5.93024">
        <ele>1794.33</ele>
        <time>2015-02-11T09:40:03Z</time>
      </trkpt>
      <trkpt lat="45.46317" lon="5.92999">
        <ele>1797.69</ele>
        <time>2015-02-11T09:40:26Z</time>
      </trkpt>
      <trkpt lat="45.46331" lon="5.92984">
        <ele>1799.86</ele>
        <time>2015-02-11T09:40:47Z</time>
      </trkpt>
      <trkpt lat="45.46347" lon="5.9297">
        <ele>1809.19</ele>
        <time>2015-02-11T09:41:18Z</time>
      </trkpt>
      <trkpt lat="45.46365" lon="5.92965">
        <ele>1813.36</ele>
        <time>2015-02-11T09:41:45Z</time>
      </trkpt>
      <trkpt lat="45.46371" lon="5.9294">
        <ele>1820.87</ele>
        <time>2015-02-11T09:42:34Z</time>
      </trkpt>
      <trkpt lat="45.46386" lon="5.92925">
        <ele>1827.62</ele>
        <time>2015-02-11T09:43:19Z</time>
      </trkpt>
      <trkpt lat="45.46403" lon="5.92913">
        <ele>1825.96</ele>
        <time>2015-02-11T09:43:36Z</time>
      </trkpt>
      <trkpt lat="45.46414" lon="5.92891">
        <ele>1830.03</ele>
        <time>2015-02-11T09:43:49Z</time>
      </trkpt>
      <trkpt lat="45.46424" lon="5.92869">
        <ele>1830.06</ele>
        <time>2015-02-11T09:44:11Z</time>
      </trkpt>
      <trkpt lat="45.46431" lon="5.92845">
        <ele>1835.84</ele>
        <time>2015-02-11T09:44:31Z</time>
      </trkpt>
      <trkpt lat="45.46442" lon="5.92824">
        <ele>1840.61</ele>
        <time>2015-02-11T09:44:52Z</time>
      </trkpt>
      <trkpt lat="45.46455" lon="5.92805">
        <ele>1844.88</ele>
        <time>2015-02-11T09:45:16Z</time>
      </trkpt>
      <trkpt lat="45.46465" lon="5.92783">
        <ele>1852.83</ele>
        <time>2015-02-11T09:45:41Z</time>
      </trkpt>
      <trkpt lat="45.46474" lon="5.9276">
        <ele>1857.31</ele>
        <time>2015-02-11T09:46:06Z</time>
      </trkpt>
      <trkpt lat="45.46489" lon="5.92744">
        <ele>1864.86</ele>
        <time>2015-02-11T09:46:35Z</time>
      </trkpt>
      <trkpt lat="45.46482" lon="5.92721">
        <ele>1868.84</ele>
        <time>2015-02-11T09:47:03Z</time>
      </trkpt>
      <trkpt lat="45.46469" lon="5.92702">
        <ele>1871.75</ele>
        <time>2015-02-11T09:47:30Z</time>
      </trkpt>
      <trkpt lat="45.46471" lon="5.92676">
        <ele>1879.83</ele>
        <time>2015-02-11T09:47:59Z</time>
      </trkpt>
      <trkpt lat="45.46485" lon="5.92661">
        <ele>1885.53</ele>
        <time>2015-02-11T09:48:32Z</time>
      </trkpt>
      <trkpt lat="45.46472" lon="5.92642">
        <ele>1889.37</ele>
        <time>2015-02-11T09:49:05Z</time>
      </trkpt>
      <trkpt lat="45.46455" lon="5.92633">
        <ele>1893.66</ele>
        <time>2015-02-11T09:49:25Z</time>
      </trkpt>
      <trkpt lat="45.4644" lon="5.92618">
        <ele>1900.6</ele>
        <time>2015-02-11T09:49:56Z</time>
      </trkpt>
      <trkpt lat="45.46425" lon="5.92603">
        <ele>1902.99</ele>
        <time>2015-02-11T09:50:23Z</time>
      </trkpt>
      <trkpt lat="45.46434" lon="5.9258">
        <ele>1909.85</ele>
        <time>2015-02-11T09:51:04Z</time>
      </trkpt>
      <trkpt lat="45.46451" lon="5.9257">
        <ele>1914.81</ele>
        <time>2015-02-11T09:51:29Z</time>
      </trkpt>
      <trkpt lat="45.46468" lon="5.92558">
        <ele>1920.56</ele>
        <time>2015-02-11T09:51:53Z</time>
      </trkpt>
      <trkpt lat="45.46484" lon="5.92544">
        <ele>1924.72</ele>
        <time>2015-02-11T09:52:17Z</time>
      </trkpt>
      <trkpt lat="45.46496" lon="5.92525">
        <ele>1928.61</ele>
        <time>2015-02-11T09:52:37Z</time>
      </trkpt>
      <trkpt lat="45.46479" lon="5.92516">
        <ele>1930.44</ele>
        <time>2015-02-11T09:52:58Z</time>
      </trkpt>
      <trkpt lat="45.4646" lon="5.92515">
        <ele>1931.5</ele>
        <time>2015-02-11T10:17:09Z</time>
      </trkpt>
      <trkpt lat="45.46445" lon="5.9253">
        <ele>1929.21</ele>
        <time>2015-02-11T10:17:14Z</time>
      </trkpt>
      <trkpt lat="45.46425" lon="5.92545">
        <ele>1924.33</ele>
        <time>2015-02-11T10:17:29Z</time>
      </trkpt>
      <trkpt lat="45.46421" lon="5.92571">
        <ele>1918.19</ele>
        <time>2015-02-11T10:17:37Z</time>
      </trkpt>
      <trkpt lat="45.464" lon="5.92568">
        <ele>1915.33</ele>
        <time>2015-02-11T10:17:41Z</time>
      </trkpt>
      <trkpt lat="45.46379" lon="5.92573">
        <ele>1907.88</ele>
        <time>2015-02-11T10:18:05Z</time>
      </trkpt>
      <trkpt lat="45.46361" lon="5.92556">
        <ele>1904.38</ele>
        <time>2015-02-11T10:18:09Z</time>
      </trkpt>
      <trkpt lat="45.46348" lon="5.92537">
        <ele>1901.6</ele>
        <time>2015-02-11T10:18:13Z</time>
      </trkpt>
      <trkpt lat="45.46331" lon="5.92524">
        <ele>1897.86</ele>
        <time>2015-02-11T10:18:17Z</time>
      </trkpt>
      <trkpt lat="45.46316" lon="5.9251">
        <ele>1896.19</ele>
        <time>2015-02-11T10:18:21Z</time>
      </trkpt>
      <trkpt lat="45.46301" lon="5.92496">
        <ele>1895.88</ele>
        <time>2015-02-11T10:18:36Z</time>
      </trkpt>
      <trkpt lat="45.46284" lon="5.92486">
        <ele>1897.39</ele>
        <time>2015-02-11T10:19:05Z</time>
      </trkpt>
      <trkpt lat="45.46268" lon="5.92472">
        <ele>1894.87</ele>
        <time>2015-02-11T10:19:26Z</time>
      </trkpt>
      <trkpt lat="45.46249" lon="5.92471">
        <ele>1894.22</ele>
        <time>2015-02-11T10:19:36Z</time>
      </trkpt>
      <trkpt lat="45.46229" lon="5.92469">
        <ele>1893.88</ele>
        <time>2015-02-11T10:19:42Z</time>
      </trkpt>
      <trkpt lat="45.46211" lon="5.92472">
        <ele>1892.72</ele>
        <time>2015-02-11T10:19:51Z</time>
      </trkpt>
      <trkpt lat="45.46193" lon="5.92472">
        <ele>1894.6</ele>
        <time>2015-02-11T10:20:13Z</time>
      </trkpt>
      <trkpt lat="45.46174" lon="5.92472">
        <ele>1896</ele>
        <time>2015-02-11T10:20:42Z</time>
      </trkpt>
      <trkpt lat="45.46156" lon="5.92467">
        <ele>1897.87</ele>
        <time>2015-02-11T10:21:08Z</time>
      </trkpt>
      <trkpt lat="45.4614" lon="5.92456">
        <ele>1896.95</ele>
        <time>2015-02-11T10:21:30Z</time>
      </trkpt>
      <trkpt lat="45.46122" lon="5.9245">
        <ele>1895.91</ele>
        <time>2015-02-11T10:21:36Z</time>
      </trkpt>
      <trkpt lat="45.46103" lon="5.92446">
        <ele>1896.25</ele>
        <time>2015-02-11T10:21:50Z</time>
      </trkpt>
      <trkpt lat="45.46086" lon="5.92439">
        <ele>1898.89</ele>
        <time>2015-02-11T10:22:25Z</time>
      </trkpt>
      <trkpt lat="45.46067" lon="5.92433">
        <ele>1899.74</ele>
        <time>2015-02-11T10:22:43Z</time>
      </trkpt>
      <trkpt lat="45.46049" lon="5.92434">
        <ele>1903.88</ele>
        <time>2015-02-11T10:23:27Z</time>
      </trkpt>
      <trkpt lat="45.4603" lon="5.92434">
        <ele>1901.19</ele>
        <time>2015-02-11T10:23:37Z</time>
      </trkpt>
      <trkpt lat="45.46015" lon="5.92451">
        <ele>1897.86</ele>
        <time>2015-02-11T10:23:42Z</time>
      </trkpt>
      <trkpt lat="45.45997" lon="5.92465">
        <ele>1894.06</ele>
        <time>2015-02-11T10:23:46Z</time>
      </trkpt>
      <trkpt lat="45.45977" lon="5.92463">
        <ele>1891.44</ele>
        <time>2015-02-11T10:24:20Z</time>
      </trkpt>
      <trkpt lat="45.4596" lon="5.92471">
        <ele>1893.37</ele>
        <time>2015-02-11T10:25:20Z</time>
      </trkpt>
      <trkpt lat="45.45942" lon="5.92466">
        <ele>1896.86</ele>
        <time>2015-02-11T10:25:54Z</time>
      </trkpt>
      <trkpt lat="45.45926" lon="5.92452">
        <ele>1894.88</ele>
        <time>2015-02-11T10:28:54Z</time>
      </trkpt>
      <trkpt lat="45.4591" lon="5.9244">
        <ele>1890</ele>
        <time>2015-02-11T10:30:15Z</time>
      </trkpt>
      <trkpt lat="45.45892" lon="5.92428">
        <ele>1886.61</ele>
        <time>2015-02-11T10:31:16Z</time>
      </trkpt>
      <trkpt lat="45.45872" lon="5.92422">
        <ele>1882.99</ele>
        <time>2015-02-11T10:31:20Z</time>
      </trkpt>
      <trkpt lat="45.45855" lon="5.92412">
        <ele>1879.64</ele>
        <time>2015-02-11T10:31:23Z</time>
      </trkpt>
      <trkpt lat="45.45838" lon="5.92402">
        <ele>1878.9</ele>
        <time>2015-02-11T10:31:28Z</time>
      </trkpt>
      <trkpt lat="45.45822" lon="5.92389">
        <ele>1879.87</ele>
        <time>2015-02-11T10:31:55Z</time>
      </trkpt>
      <trkpt lat="45.45809" lon="5.9237">
        <ele>1882.28</ele>
        <time>2015-02-11T10:32:35Z</time>
      </trkpt>
      <trkpt lat="45.45793" lon="5.92356">
        <ele>1882.6</ele>
        <time>2015-02-11T10:32:51Z</time>
      </trkpt>
      <trkpt lat="45.45776" lon="5.92346">
        <ele>1882.78</ele>
        <time>2015-02-11T10:33:26Z</time>
      </trkpt>
      <trkpt lat="45.45758" lon="5.92341">
        <ele>1883.5</ele>
        <time>2015-02-11T10:33:48Z</time>
      </trkpt>
      <trkpt lat="45.4574" lon="5.92335">
        <ele>1881.97</ele>
        <time>2015-02-11T10:34:05Z</time>
      </trkpt>
      <trkpt lat="45.45719" lon="5.92334">
        <ele>1881.97</ele>
        <time>2015-02-11T10:34:44Z</time>
      </trkpt>
      <trkpt lat="45.45703" lon="5.92348">
        <ele>1874.76</ele>
        <time>2015-02-11T10:34:49Z</time>
      </trkpt>
      <trkpt lat="45.45708" lon="5.92377">
        <ele>1862.31</ele>
        <time>2015-02-11T10:34:55Z</time>
      </trkpt>
      <trkpt lat="45.45692" lon="5.92399">
        <ele>1851.21</ele>
        <time>2015-02-11T10:35:01Z</time>
      </trkpt>
      <trkpt lat="45.45697" lon="5.92428">
        <ele>1839.85</ele>
        <time>2015-02-11T10:36:06Z</time>
      </trkpt>
      <trkpt lat="45.45707" lon="5.92455">
        <ele>1831.38</ele>
        <time>2015-02-11T10:36:12Z</time>
      </trkpt>
      <trkpt lat="45.45731" lon="5.9246">
        <ele>1824.86</ele>
        <time>2015-02-11T10:36:17Z</time>
      </trkpt>
      <trkpt lat="45.4575" lon="5.9248">
        <ele>1819.63</ele>
        <time>2015-02-11T10:36:21Z</time>
      </trkpt>
      <trkpt lat="45.45764" lon="5.92505">
        <ele>1813.24</ele>
        <time>2015-02-11T10:36:25Z</time>
      </trkpt>
      <trkpt lat="45.45781" lon="5.92527">
        <ele>1807.53</ele>
        <time>2015-02-11T10:36:29Z</time>
      </trkpt>
      <trkpt lat="45.45793" lon="5.92548">
        <ele>1804.21</ele>
        <time>2015-02-11T10:36:32Z</time>
      </trkpt>
      <trkpt lat="45.45779" lon="5.92565">
        <ele>1793.52</ele>
        <time>2015-02-11T10:37:06Z</time>
      </trkpt>
      <trkpt lat="45.45763" lon="5.92582">
        <ele>1785.41</ele>
        <time>2015-02-11T10:37:13Z</time>
      </trkpt>
      <trkpt lat="45.45746" lon="5.92592">
        <ele>1779.26</ele>
        <time>2015-02-11T10:37:33Z</time>
      </trkpt>
      <trkpt lat="45.45727" lon="5.92595">
        <ele>1774.63</ele>
        <time>2015-02-11T10:38:21Z</time>
      </trkpt>
      <trkpt lat="45.45728" lon="5.92623">
        <ele>1769.06</ele>
        <time>2015-02-11T10:38:27Z</time>
      </trkpt>
      <trkpt lat="45.4571" lon="5.92621">
        <ele>1764.75</ele>
        <time>2015-02-11T10:38:39Z</time>
      </trkpt>
      <trkpt lat="45.45714" lon="5.92651">
        <ele>1757.31</ele>
        <time>2015-02-11T10:38:45Z</time>
      </trkpt>
      <trkpt lat="45.45719" lon="5.92677">
        <ele>1751.84</ele>
        <time>2015-02-11T10:38:49Z</time>
      </trkpt>
      <trkpt lat="45.45711" lon="5.92705">
        <ele>1747.97</ele>
        <time>2015-02-11T10:38:54Z</time>
      </trkpt>
      <trkpt lat="45.45704" lon="5.92729">
        <ele>1742.95</ele>
        <time>2015-02-11T10:38:58Z</time>
      </trkpt>
      <trkpt lat="45.45702" lon="5.92756">
        <ele>1738.57</ele>
        <time>2015-02-11T10:39:02Z</time>
      </trkpt>
      <trkpt lat="45.45685" lon="5.92768">
        <ele>1732.94</ele>
        <time>2015-02-11T10:39:08Z</time>
      </trkpt>
      <trkpt lat="45.45668" lon="5.92784">
        <ele>1733.24</ele>
        <time>2015-02-11T10:41:44Z</time>
      </trkpt>
      <trkpt lat="45.45658" lon="5.9281">
        <ele>1726.98</ele>
        <time>2015-02-11T10:41:50Z</time>
      </trkpt>
      <trkpt lat="45.45647" lon="5.92832">
        <ele>1723.54</ele>
        <time>2015-02-11T10:41:55Z</time>
      </trkpt>
      <trkpt lat="45.45629" lon="5.92848">
        <ele>1721.67</ele>
        <time>2015-02-11T10:42:01Z</time>
      </trkpt>
      <trkpt lat="45.45615" lon="5.92863">
        <ele>1717.97</ele>
        <time>2015-02-11T10:42:06Z</time>
      </trkpt>
      <trkpt lat="45.45602" lon="5.92886">
        <ele>1712.05</ele>
        <time>2015-02-11T10:42:15Z</time>
      </trkpt>
      <trkpt lat="45.45587" lon="5.92902">
        <ele>1710.03</ele>
        <time>2015-02-11T10:42:42Z</time>
      </trkpt>
      <trkpt lat="45.45571" lon="5.92913">
        <ele>1703.43</ele>
        <time>2015-02-11T10:43:06Z</time>
      </trkpt>
      <trkpt lat="45.45553" lon="5.92909">
        <ele>1702.84</ele>
        <time>2015-02-11T10:52:26Z</time>
      </trkpt>
      <trkpt lat="45.45534" lon="5.92908">
        <ele>1705.92</ele>
        <time>2015-02-11T10:52:46Z</time>
      </trkpt>
      <trkpt lat="45.45518" lon="5.92897">
        <ele>1707.18</ele>
        <time>2015-02-11T10:53:18Z</time>
      </trkpt>
      <trkpt lat="45.455" lon="5.92895">
        <ele>1709.73</ele>
        <time>2015-02-11T10:53:52Z</time>
      </trkpt>
      <trkpt lat="45.45485" lon="5.92879">
        <ele>1712.87</ele>
        <time>2015-02-11T10:54:19Z</time>
      </trkpt>
      <trkpt lat="45.45479" lon="5.92855">
        <ele>1714.91</ele>
        <time>2015-02-11T10:54:44Z</time>
      </trkpt>
      <trkpt lat="45.45473" lon="5.9283">
        <ele>1717.24</ele>
        <time>2015-02-11T10:55:14Z</time>
      </trkpt>
      <trkpt lat="45.45468" lon="5.92805">
        <ele>1721.12</ele>
        <time>2015-02-11T10:55:53Z</time>
      </trkpt>
      <trkpt lat="45.45464" lon="5.9278">
        <ele>1724.71</ele>
        <time>2015-02-11T10:56:17Z</time>
      </trkpt>
      <trkpt lat="45.4546" lon="5.92755">
        <ele>1727.64</ele>
        <time>2015-02-11T10:56:46Z</time>
      </trkpt>
      <trkpt lat="45.45462" lon="5.92729">
        <ele>1732.48</ele>
        <time>2015-02-11T10:57:17Z</time>
      </trkpt>
      <trkpt lat="45.45468" lon="5.92705">
        <ele>1737.86</ele>
        <time>2015-02-11T10:58:04Z</time>
      </trkpt>
      <trkpt lat="45.45463" lon="5.92679">
        <ele>1737.99</ele>
        <time>2015-02-11T10:58:47Z</time>
      </trkpt>
      <trkpt lat="45.45454" lon="5.92656">
        <ele>1739.85</ele>
        <time>2015-02-11T10:59:11Z</time>
      </trkpt>
      <trkpt lat="45.45453" lon="5.92629">
        <ele>1747.94</ele>
        <time>2015-02-11T11:02:36Z</time>
      </trkpt>
      <trkpt lat="45.45442" lon="5.92608">
        <ele>1753.17</ele>
        <time>2015-02-11T11:02:58Z</time>
      </trkpt>
      <trkpt lat="45.45432" lon="5.92587">
        <ele>1758.1</ele>
        <time>2015-02-11T11:03:29Z</time>
      </trkpt>
      <trkpt lat="45.45428" lon="5.92562">
        <ele>1754.39</ele>
        <time>2015-02-11T11:04:00Z</time>
      </trkpt>
      <trkpt lat="45.45423" lon="5.92537">
        <ele>1759.73</ele>
        <time>2015-02-11T11:04:32Z</time>
      </trkpt>
      <trkpt lat="45.45421" lon="5.92511">
        <ele>1770.88</ele>
        <time>2015-02-11T11:05:18Z</time>
      </trkpt>
      <trkpt lat="45.4543" lon="5.92489">
        <ele>1775.99</ele>
        <time>2015-02-11T11:06:19Z</time>
      </trkpt>
      <trkpt lat="45.45447" lon="5.92478">
        <ele>1786.87</ele>
        <time>2015-02-11T11:06:59Z</time>
      </trkpt>
      <trkpt lat="45.45445" lon="5.92453">
        <ele>1793.37</ele>
        <time>2015-02-11T11:07:58Z</time>
      </trkpt>
      <trkpt lat="45.45438" lon="5.92428">
        <ele>1804.38</ele>
        <time>2015-02-11T11:09:08Z</time>
      </trkpt>
      <trkpt lat="45.45445" lon="5.92404">
        <ele>1802.97</ele>
        <time>2015-02-11T11:09:39Z</time>
      </trkpt>
      <trkpt lat="45.45447" lon="5.92378">
        <ele>1809.98</ele>
        <time>2015-02-11T11:10:26Z</time>
      </trkpt>
      <trkpt lat="45.45444" lon="5.92353">
        <ele>1817.67</ele>
        <time>2015-02-11T11:11:15Z</time>
      </trkpt>
      <trkpt lat="45.45448" lon="5.92328">
        <ele>1828.64</ele>
        <time>2015-02-11T11:12:18Z</time>
      </trkpt>
      <trkpt lat="45.45452" lon="5.92303">
        <ele>1840.84</ele>
        <time>2015-02-11T11:13:25Z</time>
      </trkpt>
      <trkpt lat="45.45435" lon="5.92293">
        <ele>1843.47</ele>
        <time>2015-02-11T11:13:58Z</time>
      </trkpt>
      <trkpt lat="45.4545" lon="5.92278">
        <ele>1850.81</ele>
        <time>2015-02-11T11:14:55Z</time>
      </trkpt>
      <trkpt lat="45.45451" lon="5.92251">
        <ele>1856.13</ele>
        <time>2015-02-11T11:16:24Z</time>
      </trkpt>
      <trkpt lat="45.45436" lon="5.92236">
        <ele>1857.88</ele>
        <time>2015-02-11T11:18:21Z</time>
      </trkpt>
      <trkpt lat="45.45416" lon="5.92241">
        <ele>1853.86</ele>
        <time>2015-02-11T11:18:28Z</time>
      </trkpt>
      <trkpt lat="45.45398" lon="5.92246">
        <ele>1856.91</ele>
        <time>2015-02-11T11:18:48Z</time>
      </trkpt>
      <trkpt lat="45.4538" lon="5.92247">
        <ele>1853.89</ele>
        <time>2015-02-11T11:19:15Z</time>
      </trkpt>
      <trkpt lat="45.45362" lon="5.9225">
        <ele>1854.91</ele>
        <time>2015-02-11T11:20:17Z</time>
      </trkpt>
      <trkpt lat="45.45344" lon="5.92259">
        <ele>1856.87</ele>
        <time>2015-02-11T11:20:43Z</time>
      </trkpt>
      <trkpt lat="45.45327" lon="5.92263">
        <ele>1862.62</ele>
        <time>2015-02-11T11:21:22Z</time>
      </trkpt>
      <trkpt lat="45.45308" lon="5.92264">
        <ele>1868.19</ele>
        <time>2015-02-11T11:22:07Z</time>
      </trkpt>
      <trkpt lat="45.45291" lon="5.92272">
        <ele>1866.74</ele>
        <time>2015-02-11T11:22:31Z</time>
      </trkpt>
      <trkpt lat="45.45272" lon="5.92271">
        <ele>1868.84</ele>
        <time>2015-02-11T11:22:56Z</time>
      </trkpt>
      <trkpt lat="45.45255" lon="5.92264">
        <ele>1868.81</ele>
        <time>2015-02-11T11:23:31Z</time>
      </trkpt>
      <trkpt lat="45.45252" lon="5.92238">
        <ele>1874.75</ele>
        <time>2015-02-11T11:24:42Z</time>
      </trkpt>
      <trkpt lat="45.45238" lon="5.92222">
        <ele>1877.88</ele>
        <time>2015-02-11T11:27:40Z</time>
      </trkpt>
      <trkpt lat="45.45228" lon="5.92199">
        <ele>1883.61</ele>
        <time>2015-02-11T11:28:30Z</time>
      </trkpt>
      <trkpt lat="45.45212" lon="5.92187">
        <ele>1887.37</ele>
        <time>2015-02-11T11:28:56Z</time>
      </trkpt>
      <trkpt lat="45.45195" lon="5.92178">
        <ele>1892.36</ele>
        <time>2015-02-11T11:29:21Z</time>
      </trkpt>
      <trkpt lat="45.45177" lon="5.9217">
        <ele>1894.88</ele>
        <time>2015-02-11T11:29:49Z</time>
      </trkpt>
      <trkpt lat="45.45159" lon="5.92172">
        <ele>1895.88</ele>
        <time>2015-02-11T11:30:11Z</time>
      </trkpt>
      <trkpt lat="45.45141" lon="5.92172">
        <ele>1898.96</ele>
        <time>2015-02-11T11:30:37Z</time>
      </trkpt>
      <trkpt lat="45.45122" lon="5.92168">
        <ele>1899.89</ele>
        <time>2015-02-11T11:31:01Z</time>
      </trkpt>
      <trkpt lat="45.45104" lon="5.92165">
        <ele>1899.9</ele>
        <time>2015-02-11T11:31:25Z</time>
      </trkpt>
      <trkpt lat="45.45085" lon="5.92163">
        <ele>1902.55</ele>
        <time>2015-02-11T11:31:45Z</time>
      </trkpt>
      <trkpt lat="45.45066" lon="5.92162">
        <ele>1906.78</ele>
        <time>2015-02-11T11:32:31Z</time>
      </trkpt>
      <trkpt lat="45.45051" lon="5.92149">
        <ele>1909.99</ele>
        <time>2015-02-11T11:33:00Z</time>
      </trkpt>
      <trkpt lat="45.45035" lon="5.92136">
        <ele>1912.76</ele>
        <time>2015-02-11T11:33:26Z</time>
      </trkpt>
      <trkpt lat="45.45021" lon="5.92119">
        <ele>1915.9</ele>
        <time>2015-02-11T11:34:03Z</time>
      </trkpt>
      <trkpt lat="45.45009" lon="5.92099">
        <ele>1914.88</ele>
        <time>2015-02-11T11:37:35Z</time>
      </trkpt>
      <trkpt lat="45.44993" lon="5.92087">
        <ele>1913.83</ele>
        <time>2015-02-11T11:37:53Z</time>
      </trkpt>
      <trkpt lat="45.44977" lon="5.92073">
        <ele>1918.09</ele>
        <time>2015-02-11T11:38:13Z</time>
      </trkpt>
      <trkpt lat="45.44961" lon="5.9206">
        <ele>1915.82</ele>
        <time>2015-02-11T11:38:31Z</time>
      </trkpt>
      <trkpt lat="45.44944" lon="5.92054">
        <ele>1920.5</ele>
        <time>2015-02-11T11:38:50Z</time>
      </trkpt>
      <trkpt lat="45.44925" lon="5.92056">
        <ele>1919.63</ele>
        <time>2015-02-11T11:39:08Z</time>
      </trkpt>
      <trkpt lat="45.44908" lon="5.92048">
        <ele>1920.61</ele>
        <time>2015-02-11T11:39:26Z</time>
      </trkpt>
      <trkpt lat="45.4489" lon="5.92041">
        <ele>1922.4</ele>
        <time>2015-02-11T11:39:46Z</time>
      </trkpt>
      <trkpt lat="45.44875" lon="5.92024">
        <ele>1924.86</ele>
        <time>2015-02-11T11:40:08Z</time>
      </trkpt>
      <trkpt lat="45.44861" lon="5.92007">
        <ele>1927.35</ele>
        <time>2015-02-11T11:40:33Z</time>
      </trkpt>
      <trkpt lat="45.44846" lon="5.91992">
        <ele>1930.84</ele>
        <time>2015-02-11T11:40:55Z</time>
      </trkpt>
      <trkpt lat="45.44832" lon="5.91976">
        <ele>1930.86</ele>
        <time>2015-02-11T11:41:13Z</time>
      </trkpt>
      <trkpt lat="45.44817" lon="5.91962">
        <ele>1933.62</ele>
        <time>2015-02-11T11:41:33Z</time>
      </trkpt>
      <trkpt lat="45.44799" lon="5.91956">
        <ele>1935.38</ele>
        <time>2015-02-11T11:41:52Z</time>
      </trkpt>
      <trkpt lat="45.44782" lon="5.91967">
        <ele>1938.64</ele>
        <time>2015-02-11T11:42:16Z</time>
      </trkpt>
      <trkpt lat="45.448" lon="5.91958">
        <ele>1933.69</ele>
        <time>2015-02-11T12:05:55Z</time>
      </trkpt>
      <trkpt lat="45.4482" lon="5.91965">
        <ele>1931.55</ele>
        <time>2015-02-11T12:05:59Z</time>
      </trkpt>
      <trkpt lat="45.44835" lon="5.9198">
        <ele>1930.14</ele>
        <time>2015-02-11T12:06:05Z</time>
      </trkpt>
      <trkpt lat="45.4485" lon="5.91997">
        <ele>1929.13</ele>
        <time>2015-02-11T12:06:14Z</time>
      </trkpt>
      <trkpt lat="45.44868" lon="5.92013">
        <ele>1928.02</ele>
        <time>2015-02-11T12:06:33Z</time>
      </trkpt>
      <trkpt lat="45.44884" lon="5.9203">
        <ele>1927.2</ele>
        <time>2015-02-11T12:06:37Z</time>
      </trkpt>
      <trkpt lat="45.449" lon="5.92045">
        <ele>1924.54</ele>
        <time>2015-02-11T12:06:42Z</time>
      </trkpt>
      <trkpt lat="45.44919" lon="5.92053">
        <ele>1923.18</ele>
        <time>2015-02-11T12:06:47Z</time>
      </trkpt>
      <trkpt lat="45.44938" lon="5.92057">
        <ele>1922.19</ele>
        <time>2015-02-11T12:06:54Z</time>
      </trkpt>
      <trkpt lat="45.44959" lon="5.9206">
        <ele>1920.11</ele>
        <time>2015-02-11T12:07:08Z</time>
      </trkpt>
      <trkpt lat="45.44976" lon="5.92069">
        <ele>1919.13</ele>
        <time>2015-02-11T12:07:14Z</time>
      </trkpt>
      <trkpt lat="45.44995" lon="5.92086">
        <ele>1917.25</ele>
        <time>2015-02-11T12:07:24Z</time>
      </trkpt>
      <trkpt lat="45.45011" lon="5.92098">
        <ele>1914.96</ele>
        <time>2015-02-11T12:07:31Z</time>
      </trkpt>
      <trkpt lat="45.45025" lon="5.92115">
        <ele>1916.88</ele>
        <time>2015-02-11T12:08:07Z</time>
      </trkpt>
      <trkpt lat="45.45039" lon="5.92135">
        <ele>1912.57</ele>
        <time>2015-02-11T12:09:30Z</time>
      </trkpt>
      <trkpt lat="45.45057" lon="5.92152">
        <ele>1907.92</ele>
        <time>2015-02-11T12:09:34Z</time>
      </trkpt>
      <trkpt lat="45.45078" lon="5.92164">
        <ele>1904.69</ele>
        <time>2015-02-11T12:09:39Z</time>
      </trkpt>
      <trkpt lat="45.45098" lon="5.92167">
        <ele>1902.49</ele>
        <time>2015-02-11T12:09:43Z</time>
      </trkpt>
      <trkpt lat="45.45117" lon="5.92169">
        <ele>1902.77</ele>
        <time>2015-02-11T12:10:05Z</time>
      </trkpt>
      <trkpt lat="45.45136" lon="5.92174">
        <ele>1902.13</ele>
        <time>2015-02-11T12:12:03Z</time>
      </trkpt>
      <trkpt lat="45.45158" lon="5.92174">
        <ele>1897.82</ele>
        <time>2015-02-11T12:12:11Z</time>
      </trkpt>
      <trkpt lat="45.45155" lon="5.92148">
        <ele>1882.38</ele>
        <time>2015-02-11T12:15:46Z</time>
      </trkpt>
      <trkpt lat="45.45164" lon="5.92126">
        <ele>1872.81</ele>
        <time>2015-02-11T12:17:45Z</time>
      </trkpt>
      <trkpt lat="45.45145" lon="5.9212">
        <ele>1863.25</ele>
        <time>2015-02-11T12:19:18Z</time>
      </trkpt>
      <trkpt lat="45.45139" lon="5.92094">
        <ele>1852.79</ele>
        <time>2015-02-11T12:19:28Z</time>
      </trkpt>
      <trkpt lat="45.45158" lon="5.92089">
        <ele>1845.29</ele>
        <time>2015-02-11T12:20:31Z</time>
      </trkpt>
      <trkpt lat="45.45165" lon="5.92065">
        <ele>1834.95</ele>
        <time>2015-02-11T12:20:46Z</time>
      </trkpt>
      <trkpt lat="45.45148" lon="5.92054">
        <ele>1825.65</ele>
        <time>2015-02-11T12:21:21Z</time>
      </trkpt>
      <trkpt lat="45.45134" lon="5.92038">
        <ele>1821.35</ele>
        <time>2015-02-11T12:23:35Z</time>
      </trkpt>
      <trkpt lat="45.45132" lon="5.92011">
        <ele>1807.24</ele>
        <time>2015-02-11T12:23:50Z</time>
      </trkpt>
      <trkpt lat="45.4512" lon="5.91992">
        <ele>1793.25</ele>
        <time>2015-02-11T12:25:36Z</time>
      </trkpt>
      <trkpt lat="45.45124" lon="5.91967">
        <ele>1779.96</ele>
        <time>2015-02-11T12:26:15Z</time>
      </trkpt>
      <trkpt lat="45.4513" lon="5.91942">
        <ele>1770.38</ele>
        <time>2015-02-11T12:29:22Z</time>
      </trkpt>
      <trkpt lat="45.45138" lon="5.91919">
        <ele>1755.34</ele>
        <time>2015-02-11T12:29:54Z</time>
      </trkpt>
      <trkpt lat="45.4514" lon="5.91893">
        <ele>1733.35</ele>
        <time>2015-02-11T12:30:18Z</time>
      </trkpt>
      <trkpt lat="45.45125" lon="5.91878">
        <ele>1717.87</ele>
        <time>2015-02-11T12:34:22Z</time>
      </trkpt>
      <trkpt lat="45.45106" lon="5.9187">
        <ele>1718.38</ele>
        <time>2015-02-11T12:38:33Z</time>
      </trkpt>
      <trkpt lat="45.45089" lon="5.91859">
        <ele>1717.58</ele>
        <time>2015-02-11T12:38:50Z</time>
      </trkpt>
      <trkpt lat="45.45071" lon="5.91854">
        <ele>1717.15</ele>
        <time>2015-02-11T12:39:26Z</time>
      </trkpt>
      <trkpt lat="45.45054" lon="5.91847">
        <ele>1719.54</ele>
        <time>2015-02-11T12:40:05Z</time>
      </trkpt>
      <trkpt lat="45.45037" lon="5.91837">
        <ele>1722.39</ele>
        <time>2015-02-11T12:42:35Z</time>
      </trkpt>
      <trkpt lat="45.45024" lon="5.91817">
        <ele>1732.1</ele>
        <time>2015-02-11T12:43:10Z</time>
      </trkpt>
      <trkpt lat="45.4501" lon="5.918">
        <ele>1728.88</ele>
        <time>2015-02-11T12:46:41Z</time>
      </trkpt>
      <trkpt lat="45.44997" lon="5.91818">
        <ele>1718.46</ele>
        <time>2015-02-11T12:49:06Z</time>
      </trkpt>
      <trkpt lat="45.44981" lon="5.91831">
        <ele>1713.7</ele>
        <time>2015-02-11T12:49:09Z</time>
      </trkpt>
      <trkpt lat="45.44963" lon="5.91833">
        <ele>1707.99</ele>
        <time>2015-02-11T12:49:13Z</time>
      </trkpt>
      <trkpt lat="45.44972" lon="5.91809">
        <ele>1701.42</ele>
        <time>2015-02-11T12:49:24Z</time>
      </trkpt>
      <trkpt lat="45.44954" lon="5.91801">
        <ele>1695.81</ele>
        <time>2015-02-11T12:49:31Z</time>
      </trkpt>
      <trkpt lat="45.4497" lon="5.91787">
        <ele>1686.46</ele>
        <time>2015-02-11T12:49:46Z</time>
      </trkpt>
      <trkpt lat="45.44972" lon="5.91761">
        <ele>1689.12</ele>
        <time>2015-02-11T12:50:45Z</time>
      </trkpt>
      <trkpt lat="45.44964" lon="5.91737">
        <ele>1693.02</ele>
        <time>2015-02-11T12:55:00Z</time>
      </trkpt>
      <trkpt lat="45.45005" lon="5.91824">
        <ele>1727.88</ele>
        <time>2015-02-11T13:01:16Z</time>
      </trkpt>
      <trkpt lat="45.4499" lon="5.91793">
        <ele>1737.63</ele>
        <time>2015-02-11T13:01:18Z</time>
      </trkpt>
      <trkpt lat="45.44971" lon="5.91782">
        <ele>1677.25</ele>
        <time>2015-02-11T13:02:52Z</time>
      </trkpt>
      <trkpt lat="45.44962" lon="5.91759">
        <ele>1664.84</ele>
        <time>2015-02-11T13:03:02Z</time>
      </trkpt>
      <trkpt lat="45.44968" lon="5.91733">
        <ele>1649.53</ele>
        <time>2015-02-11T13:03:18Z</time>
      </trkpt>
      <trkpt lat="45.44964" lon="5.91706">
        <ele>1639.73</ele>
        <time>2015-02-11T13:03:34Z</time>
      </trkpt>
      <trkpt lat="45.44946" lon="5.91696">
        <ele>1634.3</ele>
        <time>2015-02-11T13:03:41Z</time>
      </trkpt>
      <trkpt lat="45.44956" lon="5.91674">
        <ele>1629.38</ele>
        <time>2015-02-11T13:03:49Z</time>
      </trkpt>
      <trkpt lat="45.44973" lon="5.91664">
        <ele>1627.7</ele>
        <time>2015-02-11T13:04:26Z</time>
      </trkpt>
      <trkpt lat="45.44956" lon="5.91648">
        <ele>1619.8</ele>
        <time>2015-02-11T13:04:34Z</time>
      </trkpt>
      <trkpt lat="45.44938" lon="5.91645">
        <ele>1612.98</ele>
        <time>2015-02-11T13:04:51Z</time>
      </trkpt>
      <trkpt lat="45.44923" lon="5.91623">
        <ele>1598.62</ele>
        <time>2015-02-11T13:05:01Z</time>
      </trkpt>
      <trkpt lat="45.44915" lon="5.91596">
        <ele>1585.69</ele>
        <time>2015-02-11T13:06:03Z</time>
      </trkpt>
      <trkpt lat="45.44899" lon="5.91581">
        <ele>1578.23</ele>
        <time>2015-02-11T13:06:09Z</time>
      </trkpt>
      <trkpt lat="45.44886" lon="5.91557">
        <ele>1566.26</ele>
        <time>2015-02-11T13:06:16Z</time>
      </trkpt>
      <trkpt lat="45.44871" lon="5.91542">
        <ele>1556.94</ele>
        <time>2015-02-11T13:06:23Z</time>
      </trkpt>
      <trkpt lat="45.44862" lon="5.91519">
        <ele>1551.76</ele>
        <time>2015-02-11T13:07:12Z</time>
      </trkpt>
      <trkpt lat="45.44847" lon="5.91503">
        <ele>1543.98</ele>
        <time>2015-02-11T13:07:26Z</time>
      </trkpt>
      <trkpt lat="45.44838" lon="5.9148">
        <ele>1527.34</ele>
        <time>2015-02-11T13:07:38Z</time>
      </trkpt>
      <trkpt lat="45.44833" lon="5.91455">
        <ele>1509.92</ele>
        <time>2015-02-11T13:08:40Z</time>
      </trkpt>
      <trkpt lat="45.44825" lon="5.9143">
        <ele>1501.79</ele>
        <time>2015-02-11T13:08:49Z</time>
      </trkpt>
      <trkpt lat="45.44829" lon="5.91405">
        <ele>1493.62</ele>
        <time>2015-02-11T13:08:57Z</time>
      </trkpt>
      <trkpt lat="45.4482" lon="5.91383">
        <ele>1487.49</ele>
        <time>2015-02-11T13:09:21Z</time>
      </trkpt>
      <trkpt lat="45.4482" lon="5.91357">
        <ele>1479.62</ele>
        <time>2015-02-11T13:09:32Z</time>
      </trkpt>
      <trkpt lat="45.44819" lon="5.9133">
        <ele>1470.57</ele>
        <time>2015-02-11T13:10:43Z</time>
      </trkpt>
      <trkpt lat="45.44812" lon="5.91306">
        <ele>1458.53</ele>
        <time>2015-02-11T13:10:53Z</time>
      </trkpt>
      <trkpt lat="45.4481" lon="5.9128">
        <ele>1454.23</ele>
        <time>2015-02-11T13:11:02Z</time>
      </trkpt>
      <trkpt lat="45.44807" lon="5.91252">
        <ele>1439.32</ele>
        <time>2015-02-11T13:11:28Z</time>
      </trkpt>
      <trkpt lat="45.44794" lon="5.91229">
        <ele>1425.83</ele>
        <time>2015-02-11T13:11:52Z</time>
      </trkpt>
      <trkpt lat="45.44781" lon="5.91208">
        <ele>1415.39</ele>
        <time>2015-02-11T13:12:10Z</time>
      </trkpt>
      <trkpt lat="45.44773" lon="5.91185">
        <ele>1401.77</ele>
        <time>2015-02-11T13:12:25Z</time>
      </trkpt>
      <trkpt lat="45.44787" lon="5.91169">
        <ele>1398.58</ele>
        <time>2015-02-11T13:12:57Z</time>
      </trkpt>
      <trkpt lat="45.44779" lon="5.91144">
        <ele>1382.16</ele>
        <time>2015-02-11T13:13:11Z</time>
      </trkpt>
      <trkpt lat="45.44767" lon="5.91123">
        <ele>1370.28</ele>
        <time>2015-02-11T13:13:20Z</time>
      </trkpt>
      <trkpt lat="45.44764" lon="5.91097">
        <ele>1361.54</ele>
        <time>2015-02-11T13:13:29Z</time>
      </trkpt>
      <trkpt lat="45.44754" lon="5.91075">
        <ele>1356.7</ele>
        <time>2015-02-11T13:14:03Z</time>
      </trkpt>
      <trkpt lat="45.44751" lon="5.91049">
        <ele>1348.67</ele>
        <time>2015-02-11T13:14:12Z</time>
      </trkpt>
      <trkpt lat="45.44735" lon="5.9103">
        <ele>1343.2</ele>
        <time>2015-02-11T13:14:19Z</time>
      </trkpt>
      <trkpt lat="45.44724" lon="5.9101">
        <ele>1332.06</ele>
        <time>2015-02-11T13:14:35Z</time>
      </trkpt>
      <trkpt lat="45.4474" lon="5.90994">
        <ele>1324.49</ele>
        <time>2015-02-11T13:23:03Z</time>
      </trkpt>
      <trkpt lat="45.44755" lon="5.90974">
        <ele>1317.87</ele>
        <time>2015-02-11T13:23:08Z</time>
      </trkpt>
      <trkpt lat="45.44769" lon="5.90957">
        <ele>1314.32</ele>
        <time>2015-02-11T13:23:22Z</time>
      </trkpt>
      <trkpt lat="45.44776" lon="5.90932">
        <ele>1309.09</ele>
        <time>2015-02-11T13:23:34Z</time>
      </trkpt>
      <trkpt lat="45.44785" lon="5.90907">
        <ele>1301.82</ele>
        <time>2015-02-11T13:23:39Z</time>
      </trkpt>
      <trkpt lat="45.44794" lon="5.90884">
        <ele>1288.43</ele>
        <time>2015-02-11T13:24:07Z</time>
      </trkpt>
      <trkpt lat="45.44786" lon="5.90861">
        <ele>1272.27</ele>
        <time>2015-02-11T13:24:29Z</time>
      </trkpt>
      <trkpt lat="45.44769" lon="5.9085">
        <ele>1263.88</ele>
        <time>2015-02-11T13:24:53Z</time>
      </trkpt>
      <trkpt lat="45.44769" lon="5.90824">
        <ele>1260.41</ele>
        <time>2015-02-11T13:25:42Z</time>
      </trkpt>
      <trkpt lat="45.44789" lon="5.90812">
        <ele>1257.14</ele>
        <time>2015-02-11T13:25:48Z</time>
      </trkpt>
      <trkpt lat="45.44804" lon="5.90795">
        <ele>1255.64</ele>
        <time>2015-02-11T13:25:53Z</time>
      </trkpt>
      <trkpt lat="45.44821" lon="5.9078">
        <ele>1251.75</ele>
        <time>2015-02-11T13:25:58Z</time>
      </trkpt>
      <trkpt lat="45.44835" lon="5.90764">
        <ele>1246.99</ele>
        <time>2015-02-11T13:26:01Z</time>
      </trkpt>
      <trkpt lat="45.44853" lon="5.90748">
        <ele>1243.13</ele>
        <time>2015-02-11T13:26:05Z</time>
      </trkpt>
      <trkpt lat="45.44871" lon="5.90731">
        <ele>1243.6</ele>
        <time>2015-02-11T13:26:10Z</time>
      </trkpt>
      <trkpt lat="45.44886" lon="5.90712">
        <ele>1237.3</ele>
        <time>2015-02-11T13:26:14Z</time>
      </trkpt>
      <trkpt lat="45.44899" lon="5.90692">
        <ele>1233.32</ele>
        <time>2015-02-11T13:26:20Z</time>
      </trkpt>
      <trkpt lat="45.44914" lon="5.90673">
        <ele>1229.59</ele>
        <time>2015-02-11T13:26:26Z</time>
      </trkpt>
      <trkpt lat="45.44927" lon="5.90655">
        <ele>1227.51</ele>
        <time>2015-02-11T13:26:32Z</time>
      </trkpt>
      <trkpt lat="45.4491" lon="5.90651">
        <ele>1226.83</ele>
        <time>2015-02-11T13:31:55Z</time>
      </trkpt>
      <trkpt lat="45.4489" lon="5.90651">
        <ele>1224.79</ele>
        <time>2015-02-11T13:32:05Z</time>
      </trkpt>
      <trkpt lat="45.44872" lon="5.90653">
        <ele>1218.69</ele>
        <time>2015-02-11T13:32:16Z</time>
      </trkpt>
      <trkpt lat="45.44852" lon="5.90653">
        <ele>1218.69</ele>
        <time>2015-02-11T13:32:33Z</time>
      </trkpt>
      <trkpt lat="45.44836" lon="5.90639">
        <ele>1217.77</ele>
        <time>2015-02-11T13:32:48Z</time>
      </trkpt>
      <trkpt lat="45.44819" lon="5.90622">
        <ele>1216.53</ele>
        <time>2015-02-11T13:32:54Z</time>
      </trkpt>
      <trkpt lat="45.44803" lon="5.90604">
        <ele>1216.54</ele>
        <time>2015-02-11T13:32:58Z</time>
      </trkpt>
      <trkpt lat="45.44788" lon="5.90584">
        <ele>1215.92</ele>
        <time>2015-02-11T13:33:02Z</time>
      </trkpt>
      <trkpt lat="45.44777" lon="5.90563">
        <ele>1220.1</ele>
        <time>2015-02-11T13:33:14Z</time>
      </trkpt>
      <trkpt lat="45.4477" lon="5.90539">
        <ele>1221.87</ele>
        <time>2015-02-11T13:33:34Z</time>
      </trkpt>
      <trkpt lat="45.44771" lon="5.90511">
        <ele>1214.63</ele>
        <time>2015-02-11T13:33:48Z</time>
      </trkpt>
      <trkpt lat="45.4475" lon="5.90501">
        <ele>1203.3</ele>
        <time>2015-02-11T13:34:08Z</time>
      </trkpt>
      <trkpt lat="45.4473" lon="5.9051">
        <ele>1199.33</ele>
        <time>2015-02-11T13:34:13Z</time>
      </trkpt>
      <trkpt lat="45.44712" lon="5.90515">
        <ele>1195.53</ele>
        <time>2015-02-11T13:34:17Z</time>
      </trkpt>
      <trkpt lat="45.44691" lon="5.90518">
        <ele>1193.65</ele>
        <time>2015-02-11T13:34:22Z</time>
      </trkpt>
      <trkpt lat="45.44677" lon="5.90501">
        <ele>1188.19</ele>
        <time>2015-02-11T13:34:53Z</time>
      </trkpt>
      <trkpt lat="45.44658" lon="5.90507">
        <ele>1175.01</ele>
        <time>2015-02-11T13:36:33Z</time>
      </trkpt>
      <trkpt lat="45.44645" lon="5.9053">
        <ele>1171.23</ele>
        <time>2015-02-11T13:36:38Z</time>
      </trkpt>
      <trkpt lat="45.44631" lon="5.90548">
        <ele>1167.95</ele>
        <time>2015-02-11T13:36:43Z</time>
      </trkpt>
      <trkpt lat="45.44615" lon="5.90535">
        <ele>1161.6</ele>
        <time>2015-02-11T13:36:49Z</time>
      </trkpt>
      <trkpt lat="45.446" lon="5.9052">
        <ele>1155.46</ele>
        <time>2015-02-11T13:36:54Z</time>
      </trkpt>
      <trkpt lat="45.4459" lon="5.90496">
        <ele>1148.8</ele>
        <time>2015-02-11T13:37:01Z</time>
      </trkpt>
      <trkpt lat="45.4458" lon="5.90472">
        <ele>1139.42</ele>
        <time>2015-02-11T13:37:07Z</time>
      </trkpt>
      <trkpt lat="45.44563" lon="5.90463">
        <ele>1152.21</ele>
        <time>2015-02-11T13:37:12Z</time>
      </trkpt>
      <trkpt lat="45.44543" lon="5.90448">
        <ele>1131.27</ele>
        <time>2015-02-11T13:37:18Z</time>
      </trkpt>
      <trkpt lat="45.44536" lon="5.90415">
        <ele>1121.65</ele>
        <time>2015-02-11T13:37:22Z</time>
      </trkpt>
      <trkpt lat="45.44518" lon="5.90403">
        <ele>1115.85</ele>
        <time>2015-02-11T13:37:25Z</time>
      </trkpt>
      <trkpt lat="45.445" lon="5.9039">
        <ele>1110.06</ele>
        <time>2015-02-11T13:37:29Z</time>
      </trkpt>
      <trkpt lat="45.44478" lon="5.90377">
        <ele>1100.72</ele>
        <time>2015-02-11T13:37:35Z</time>
      </trkpt>
      <trkpt lat="45.44461" lon="5.90397">
        <ele>1095.15</ele>
        <time>2015-02-11T13:37:40Z</time>
      </trkpt>
      <trkpt lat="45.44439" lon="5.90408">
        <ele>1110.23</ele>
        <time>2015-02-11T13:37:45Z</time>
      </trkpt>
      <trkpt lat="45.44425" lon="5.90391">
        <ele>1086.45</ele>
        <time>2015-02-11T13:38:14Z</time>
      </trkpt>
      <trkpt lat="45.44416" lon="5.90364">
        <ele>1079.39</ele>
        <time>2015-02-11T13:38:20Z</time>
      </trkpt>
      <trkpt lat="45.44411" lon="5.90333">
        <ele>1075.49</ele>
        <time>2015-02-11T13:38:25Z</time>
      </trkpt>
      <trkpt lat="45.44409" lon="5.90305">
        <ele>1073.01</ele>
        <time>2015-02-11T13:38:52Z</time>
      </trkpt>
      <trkpt lat="45.44414" lon="5.90277">
        <ele>1071.02</ele>
        <time>2015-02-11T13:38:59Z</time>
      </trkpt>
      <trkpt lat="45.44417" lon="5.90248">
        <ele>1070.38</ele>
        <time>2015-02-11T13:39:07Z</time>
      </trkpt>
      <trkpt lat="45.44421" lon="5.90221">
        <ele>1064.16</ele>
        <time>2015-02-11T13:40:40Z</time>
      </trkpt>
      <trkpt lat="45.44422" lon="5.90194">
        <ele>1062.92</ele>
        <time>2015-02-11T13:40:45Z</time>
      </trkpt>
      <trkpt lat="45.4442" lon="5.9022">
        <ele>1061.12</ele>
        <time>2015-02-11T13:47:40Z</time>
      </trkpt>
      <trkpt lat="45.44417" lon="5.90246">
        <ele>1061.17</ele>
        <time>2015-02-11T13:47:58Z</time>
      </trkpt>
      <trkpt lat="45.44412" lon="5.90272">
        <ele>1063.38</ele>
        <time>2015-02-11T13:48:17Z</time>
      </trkpt>
      <trkpt lat="45.44407" lon="5.90297">
        <ele>1068.82</ele>
        <time>2015-02-11T13:48:37Z</time>
      </trkpt>
      <trkpt lat="45.44402" lon="5.90322">
        <ele>1070.78</ele>
        <time>2015-02-11T13:48:54Z</time>
      </trkpt>
      <trkpt lat="45.44397" lon="5.90347">
        <ele>1079.08</ele>
        <time>2015-02-11T13:49:12Z</time>
      </trkpt>
      <trkpt lat="45.44396" lon="5.90373">
        <ele>1077.74</ele>
        <time>2015-02-11T13:49:25Z</time>
      </trkpt>
      <trkpt lat="45.44399" lon="5.90398">
        <ele>1073.95</ele>
        <time>2015-02-11T13:49:41Z</time>
      </trkpt>
      <trkpt lat="45.44405" lon="5.90424">
        <ele>1074.36</ele>
        <time>2015-02-11T13:49:59Z</time>
      </trkpt>
      <trkpt lat="45.44408" lon="5.9045">
        <ele>1071.3</ele>
        <time>2015-02-11T13:50:15Z</time>
      </trkpt>
      <trkpt lat="45.44409" lon="5.90476">
        <ele>1072.42</ele>
        <time>2015-02-11T13:50:36Z</time>
      </trkpt>
      <trkpt lat="45.4441" lon="5.90503">
        <ele>1080.97</ele>
        <time>2015-02-11T13:50:59Z</time>
      </trkpt>
      <trkpt lat="45.44414" lon="5.90529">
        <ele>1081.58</ele>
        <time>2015-02-11T13:51:26Z</time>
      </trkpt>
      <trkpt lat="45.44415" lon="5.90556">
        <ele>1086.81</ele>
        <time>2015-02-11T13:51:49Z</time>
      </trkpt>
      <trkpt lat="45.44419" lon="5.90581">
        <ele>1087.88</ele>
        <time>2015-02-11T13:52:15Z</time>
      </trkpt>
      <trkpt lat="45.44421" lon="5.90607">
        <ele>1091.21</ele>
        <time>2015-02-11T13:52:38Z</time>
      </trkpt>
      <trkpt lat="45.44418" lon="5.90632">
        <ele>1096.3</ele>
        <time>2015-02-11T13:52:59Z</time>
      </trkpt>
      <trkpt lat="45.44415" lon="5.90657">
        <ele>1093.52</ele>
        <time>2015-02-11T13:53:24Z</time>
      </trkpt>
      <trkpt lat="45.44424" lon="5.9068">
        <ele>1095.4</ele>
        <time>2015-02-11T13:53:55Z</time>
      </trkpt>
      <trkpt lat="45.44422" lon="5.90707">
        <ele>1100.91</ele>
        <time>2015-02-11T13:54:21Z</time>
      </trkpt>
      <trkpt lat="45.44419" lon="5.90732">
        <ele>1106.88</ele>
        <time>2015-02-11T13:54:50Z</time>
      </trkpt>
      <trkpt lat="45.44418" lon="5.90759">
        <ele>1109.27</ele>
        <time>2015-02-11T13:55:22Z</time>
      </trkpt>
      <trkpt lat="45.44434" lon="5.90772">
        <ele>1114.14</ele>
        <time>2015-02-11T13:56:08Z</time>
      </trkpt>
      <trkpt lat="45.44451" lon="5.90762">
        <ele>1120.11</ele>
        <time>2015-02-11T13:56:34Z</time>
      </trkpt>
      <trkpt lat="45.44468" lon="5.90752">
        <ele>1121.03</ele>
        <time>2015-02-11T13:56:54Z</time>
      </trkpt>
      <trkpt lat="45.44484" lon="5.90739">
        <ele>1126.94</ele>
        <time>2015-02-11T13:57:17Z</time>
      </trkpt>
      <trkpt lat="45.44496" lon="5.9072">
        <ele>1131.61</ele>
        <time>2015-02-11T13:57:35Z</time>
      </trkpt>
      <trkpt lat="45.4451" lon="5.90703">
        <ele>1140.27</ele>
        <time>2015-02-11T13:57:59Z</time>
      </trkpt>
      <trkpt lat="45.44527" lon="5.90691">
        <ele>1143.7</ele>
        <time>2015-02-11T13:58:27Z</time>
      </trkpt>
      <trkpt lat="45.44543" lon="5.90678">
        <ele>1143.7</ele>
        <time>2015-02-11T13:58:57Z</time>
      </trkpt>
      <trkpt lat="45.44556" lon="5.90658">
        <ele>1148.66</ele>
        <time>2015-02-11T13:59:24Z</time>
      </trkpt>
      <trkpt lat="45.44565" lon="5.90635">
        <ele>1150.58</ele>
        <time>2015-02-11T13:59:43Z</time>
      </trkpt>
      <trkpt lat="45.4458" lon="5.9062">
        <ele>1155.67</ele>
        <time>2015-02-11T14:00:12Z</time>
      </trkpt>
      <trkpt lat="45.4459" lon="5.90641">
        <ele>1166.69</ele>
        <time>2015-02-11T14:00:51Z</time>
      </trkpt>
      <trkpt lat="45.44608" lon="5.90638">
        <ele>1160.53</ele>
        <time>2015-02-11T14:01:11Z</time>
      </trkpt>
      <trkpt lat="45.44626" lon="5.90629">
        <ele>1169.63</ele>
        <time>2015-02-11T14:01:43Z</time>
      </trkpt>
      <trkpt lat="45.44639" lon="5.9061">
        <ele>1176.84</ele>
        <time>2015-02-11T14:02:05Z</time>
      </trkpt>
      <trkpt lat="45.44652" lon="5.90592">
        <ele>1177.14</ele>
        <time>2015-02-11T14:02:31Z</time>
      </trkpt>
      <trkpt lat="45.4466" lon="5.90567">
        <ele>1177.75</ele>
        <time>2015-02-11T14:02:52Z</time>
      </trkpt>
      <trkpt lat="45.44665" lon="5.90542">
        <ele>1177.51</ele>
        <time>2015-02-11T14:03:13Z</time>
      </trkpt>
      <trkpt lat="45.44671" lon="5.90517">
        <ele>1185.49</ele>
        <time>2015-02-11T14:03:37Z</time>
      </trkpt>
      <trkpt lat="45.44682" lon="5.90497">
        <ele>1188.89</ele>
        <time>2015-02-11T14:04:02Z</time>
      </trkpt>
      <trkpt lat="45.44701" lon="5.90492">
        <ele>1196.21</ele>
        <time>2015-02-11T14:04:28Z</time>
      </trkpt>
      <trkpt lat="45.44719" lon="5.90489">
        <ele>1201.57</ele>
        <time>2015-02-11T14:04:50Z</time>
      </trkpt>
      <trkpt lat="45.44738" lon="5.90489">
        <ele>1199.72</ele>
        <time>2015-02-11T14:05:08Z</time>
      </trkpt>
      <trkpt lat="45.44756" lon="5.90488">
        <ele>1204.63</ele>
        <time>2015-02-11T14:05:32Z</time>
      </trkpt>
      <trkpt lat="45.44775" lon="5.90482">
        <ele>1210.18</ele>
        <time>2015-02-11T14:05:53Z</time>
      </trkpt>
      <trkpt lat="45.44791" lon="5.90494">
        <ele>1208.07</ele>
        <time>2015-02-11T14:07:28Z</time>
      </trkpt>
      <trkpt lat="45.44807" lon="5.90508">
        <ele>1206.85</ele>
        <time>2015-02-11T14:07:41Z</time>
      </trkpt>
      <trkpt lat="45.44822" lon="5.90495">
        <ele>1204.44</ele>
        <time>2015-02-11T14:08:01Z</time>
      </trkpt>
      <trkpt lat="45.44837" lon="5.90511">
        <ele>1212.23</ele>
        <time>2015-02-11T14:08:34Z</time>
      </trkpt>
      <trkpt lat="45.44851" lon="5.90528">
        <ele>1218.48</ele>
        <time>2015-02-11T14:09:03Z</time>
      </trkpt>
      <trkpt lat="45.44867" lon="5.90542">
        <ele>1217.11</ele>
        <time>2015-02-11T14:09:25Z</time>
      </trkpt>
      <trkpt lat="45.44883" lon="5.90555">
        <ele>1219.29</ele>
        <time>2015-02-11T14:10:03Z</time>
      </trkpt>
      <trkpt lat="45.449" lon="5.90563">
        <ele>1215</ele>
        <time>2015-02-11T14:10:17Z</time>
      </trkpt>
      <trkpt lat="45.44916" lon="5.90578">
        <ele>1220.43</ele>
        <time>2015-02-11T14:10:40Z</time>
      </trkpt>
      <trkpt lat="45.44934" lon="5.90579">
        <ele>1226.78</ele>
        <time>2015-02-11T14:11:04Z</time>
      </trkpt>
      <trkpt lat="45.44952" lon="5.90587">
        <ele>1225.48</ele>
        <time>2015-02-11T14:11:25Z</time>
      </trkpt>
      <trkpt lat="45.4497" lon="5.90596">
        <ele>1221.91</ele>
        <time>2015-02-11T14:11:40Z</time>
      </trkpt>
      <trkpt lat="45.44988" lon="5.90599">
        <ele>1219.67</ele>
        <time>2015-02-11T14:11:58Z</time>
      </trkpt>
      <trkpt lat="45.45006" lon="5.90605">
        <ele>1227.75</ele>
        <time>2015-02-11T14:12:27Z</time>
      </trkpt>
      <trkpt lat="45.45024" lon="5.90612">
        <ele>1225.73</ele>
        <time>2015-02-11T14:12:44Z</time>
      </trkpt>
      <trkpt lat="45.45042" lon="5.9062">
        <ele>1229.32</ele>
        <time>2015-02-11T14:13:04Z</time>
      </trkpt>
      <trkpt lat="45.4506" lon="5.90622">
        <ele>1229.91</ele>
        <time>2015-02-11T14:13:42Z</time>
      </trkpt>
      <trkpt lat="45.45079" lon="5.90626">
        <ele>1231.11</ele>
        <time>2015-02-11T14:16:47Z</time>
      </trkpt>
      <trkpt lat="45.45098" lon="5.90629">
        <ele>1230.41</ele>
        <time>2015-02-11T14:16:55Z</time>
      </trkpt>
      <trkpt lat="45.45117" lon="5.90631">
        <ele>1226.07</ele>
        <time>2015-02-11T14:17:07Z</time>
      </trkpt>
      <trkpt lat="45.45136" lon="5.90632">
        <ele>1224.82</ele>
        <time>2015-02-11T14:17:22Z</time>
      </trkpt>
      <trkpt lat="45.45155" lon="5.90631">
        <ele>1228.45</ele>
        <time>2015-02-11T14:17:35Z</time>
      </trkpt>
      <trkpt lat="45.45174" lon="5.90629">
        <ele>1229.34</ele>
        <time>2015-02-11T14:17:47Z</time>
      </trkpt>
      <trkpt lat="45.45192" lon="5.9063">
        <ele>1229.47</ele>
        <time>2015-02-11T14:18:06Z</time>
      </trkpt>
      <trkpt lat="45.45209" lon="5.90617">
        <ele>1223.48</ele>
        <time>2015-02-11T14:18:30Z</time>
      </trkpt>
      <trkpt lat="45.45227" lon="5.9061">
        <ele>1221.51</ele>
        <time>2015-02-11T14:18:38Z</time>
      </trkpt>
      <trkpt lat="45.45244" lon="5.90599">
        <ele>1235.94</ele>
        <time>2015-02-11T14:19:30Z</time>
      </trkpt>
      <trkpt lat="45.45262" lon="5.90593">
        <ele>1233.9</ele>
        <time>2015-02-11T14:20:01Z</time>
      </trkpt>
      <trkpt lat="45.4528" lon="5.90585">
        <ele>1230.53</ele>
        <time>2015-02-11T14:20:06Z</time>
      </trkpt>
      <trkpt lat="45.45298" lon="5.90581">
        <ele>1230.81</ele>
        <time>2015-02-11T14:20:15Z</time>
      </trkpt>
      <trkpt lat="45.45299" lon="5.90554">
        <ele>1224.48</ele>
        <time>2015-02-11T14:20:29Z</time>
      </trkpt>
      <trkpt lat="45.45285" lon="5.9053">
        <ele>1222.12</ele>
        <time>2015-02-11T14:20:36Z</time>
      </trkpt>
      <trkpt lat="45.45282" lon="5.90505">
        <ele>1221.68</ele>
        <time>2015-02-11T14:20:42Z</time>
      </trkpt>
      <trkpt lat="45.45275" lon="5.90481">
        <ele>1200.17</ele>
        <time>2015-02-11T14:26:13Z</time>
      </trkpt>
      <trkpt lat="45.45261" lon="5.90463">
        <ele>1195.98</ele>
        <time>2015-02-11T14:26:21Z</time>
      </trkpt>
      <trkpt lat="45.45272" lon="5.90441">
        <ele>1185.16</ele>
        <time>2015-02-11T14:26:40Z</time>
      </trkpt>
      <trkpt lat="45.45286" lon="5.90424">
        <ele>1180.51</ele>
        <time>2015-02-11T14:26:54Z</time>
      </trkpt>
      <trkpt lat="45.45289" lon="5.90398">
        <ele>1175.47</ele>
        <time>2015-02-11T14:27:40Z</time>
      </trkpt>
      <trkpt lat="45.45284" lon="5.90374">
        <ele>1173.28</ele>
        <time>2015-02-11T14:27:42Z</time>
      </trkpt>
      <trkpt lat="45.45273" lon="5.90347">
        <ele>1169.3</ele>
        <time>2015-02-11T14:27:45Z</time>
      </trkpt>
      <trkpt lat="45.45265" lon="5.90321">
        <ele>1166.43</ele>
        <time>2015-02-11T14:27:48Z</time>
      </trkpt>
      <trkpt lat="45.4526" lon="5.90294">
        <ele>1164.43</ele>
        <time>2015-02-11T14:27:53Z</time>
      </trkpt>
      <trkpt lat="45.4526" lon="5.90268">
        <ele>1169.1</ele>
        <time>2015-02-11T14:28:08Z</time>
      </trkpt>
      <trkpt lat="45.45273" lon="5.90247">
        <ele>1166.75</ele>
        <time>2015-02-11T14:29:01Z</time>
      </trkpt>
      <trkpt lat="45.45289" lon="5.90226">
        <ele>1157.68</ele>
        <time>2015-02-11T14:29:05Z</time>
      </trkpt>
      <trkpt lat="45.45303" lon="5.90209">
        <ele>1150.23</ele>
        <time>2015-02-11T14:29:08Z</time>
      </trkpt>
      <trkpt lat="45.4532" lon="5.90193">
        <ele>1143.42</ele>
        <time>2015-02-11T14:29:11Z</time>
      </trkpt>
      <trkpt lat="45.45339" lon="5.90185">
        <ele>1136.7</ele>
        <time>2015-02-11T14:29:14Z</time>
      </trkpt>
      <trkpt lat="45.45359" lon="5.90172">
        <ele>1129.23</ele>
        <time>2015-02-11T14:29:17Z</time>
      </trkpt>
      <trkpt lat="45.45382" lon="5.90159">
        <ele>1124.92</ele>
        <time>2015-02-11T14:29:20Z</time>
      </trkpt>
      <trkpt lat="45.45399" lon="5.90147">
        <ele>1125.36</ele>
        <time>2015-02-11T14:29:26Z</time>
      </trkpt>
      <trkpt lat="45.45417" lon="5.90144">
        <ele>1129.85</ele>
        <time>2015-02-11T14:30:15Z</time>
      </trkpt>
      <trkpt lat="45.45436" lon="5.90148">
        <ele>1129.16</ele>
        <time>2015-02-11T14:31:00Z</time>
      </trkpt>
      <trkpt lat="45.45455" lon="5.90154">
        <ele>1123.32</ele>
        <time>2015-02-11T14:31:09Z</time>
      </trkpt>
      <trkpt lat="45.45473" lon="5.90163">
        <ele>1121.77</ele>
        <time>2015-02-11T14:31:20Z</time>
      </trkpt>
      <trkpt lat="45.45491" lon="5.90169">
        <ele>1121.5</ele>
        <time>2015-02-11T14:31:34Z</time>
      </trkpt>
      <trkpt lat="45.45509" lon="5.90176">
        <ele>1122.01</ele>
        <time>2015-02-11T14:31:50Z</time>
      </trkpt>
      <trkpt lat="45.45528" lon="5.90177">
        <ele>1119.02</ele>
        <time>2015-02-11T14:32:02Z</time>
      </trkpt>
      <trkpt lat="45.45547" lon="5.90173">
        <ele>1119.72</ele>
        <time>2015-02-11T14:32:10Z</time>
      </trkpt>
      <trkpt lat="45.45565" lon="5.90173">
        <ele>1118.21</ele>
        <time>2015-02-11T14:32:24Z</time>
      </trkpt>
      <trkpt lat="45.45583" lon="5.90175">
        <ele>1119.36</ele>
        <time>2015-02-11T14:33:00Z</time>
      </trkpt>
      <trkpt lat="45.45601" lon="5.90178">
        <ele>1121.41</ele>
        <time>2015-02-11T14:33:18Z</time>
      </trkpt>
      <trkpt lat="45.45619" lon="5.90183">
        <ele>1118.03</ele>
        <time>2015-02-11T14:34:19Z</time>
      </trkpt>
      <trkpt lat="45.45637" lon="5.90192">
        <ele>1120.13</ele>
        <time>2015-02-11T14:34:30Z</time>
      </trkpt>
      <trkpt lat="45.45657" lon="5.90193">
        <ele>1118.94</ele>
        <time>2015-02-11T14:34:52Z</time>
      </trkpt>
      <trkpt lat="45.45678" lon="5.90201">
        <ele>1115.22</ele>
        <time>2015-02-11T14:34:57Z</time>
      </trkpt>
      <trkpt lat="45.45696" lon="5.90209">
        <ele>1108.51</ele>
        <time>2015-02-11T14:35:02Z</time>
      </trkpt>
      <trkpt lat="45.45715" lon="5.90216">
        <ele>1102.93</ele>
        <time>2015-02-11T14:35:07Z</time>
      </trkpt>
      <trkpt lat="45.45734" lon="5.90224">
        <ele>1100.54</ele>
        <time>2015-02-11T14:35:14Z</time>
      </trkpt>
      <trkpt lat="45.45752" lon="5.90228">
        <ele>1095.06</ele>
        <time>2015-02-11T14:35:54Z</time>
      </trkpt>
      <trkpt lat="45.45769" lon="5.9024">
        <ele>1083.08</ele>
        <time>2015-02-11T14:36:01Z</time>
      </trkpt>
      <trkpt lat="45.45784" lon="5.90259">
        <ele>1083.74</ele>
        <time>2015-02-11T14:36:08Z</time>
      </trkpt>
      <trkpt lat="45.45799" lon="5.90273">
        <ele>1092</ele>
        <time>2015-02-11T14:36:29Z</time>
      </trkpt>
      <trkpt lat="45.45812" lon="5.90254">
        <ele>1074.88</ele>
        <time>2015-02-11T14:38:29Z</time>
      </trkpt>
      <trkpt lat="45.45813" lon="5.90228">
        <ele>1067.64</ele>
        <time>2015-02-11T14:39:04Z</time>
      </trkpt>
      <trkpt lat="45.45817" lon="5.90202">
        <ele>1072.91</ele>
        <time>2015-02-11T14:39:16Z</time>
      </trkpt>
      <trkpt lat="45.45816" lon="5.90176">
        <ele>1082.86</ele>
        <time>2015-02-11T14:39:44Z</time>
      </trkpt>
      <trkpt lat="45.45819" lon="5.90149">
        <ele>1073.15</ele>
        <time>2015-02-11T14:40:09Z</time>
      </trkpt>
      <trkpt lat="45.45821" lon="5.90123">
        <ele>1063.87</ele>
        <time>2015-02-11T14:40:51Z</time>
      </trkpt>
      <trkpt lat="45.4584" lon="5.90112">
        <ele>1061.97</ele>
        <time>2015-02-11T14:41:01Z</time>
      </trkpt>
      <trkpt lat="45.45861" lon="5.90119">
        <ele>1060.45</ele>
        <time>2015-02-11T14:41:05Z</time>
      </trkpt>
      <trkpt lat="45.45881" lon="5.90124">
        <ele>1060.27</ele>
        <time>2015-02-11T14:41:10Z</time>
      </trkpt>
      <trkpt lat="45.45899" lon="5.90126">
        <ele>1058.29</ele>
        <time>2015-02-11T14:41:16Z</time>
      </trkpt>
      <trkpt lat="45.45917" lon="5.90127">
        <ele>1058.8</ele>
        <time>2015-02-11T14:41:27Z</time>
      </trkpt>
      <trkpt lat="45.45935" lon="5.90117">
        <ele>1057.04</ele>
        <time>2015-02-11T14:41:42Z</time>
      </trkpt>
      <trkpt lat="45.45953" lon="5.90114">
        <ele>1055.44</ele>
        <time>2015-02-11T14:42:00Z</time>
      </trkpt>
      <trkpt lat="45.45971" lon="5.90108">
        <ele>1055.31</ele>
        <time>2015-02-11T14:42:25Z</time>
      </trkpt>
      <trkpt lat="45.4599" lon="5.9011">
        <ele>1057.91</ele>
        <time>2015-02-11T14:43:32Z</time>
      </trkpt>
      <trkpt lat="45.46009" lon="5.90097">
        <ele>1056.57</ele>
        <time>2015-02-11T14:43:55Z</time>
      </trkpt>
      <trkpt lat="45.46025" lon="5.90079">
        <ele>1054.2</ele>
        <time>2015-02-11T14:44:01Z</time>
      </trkpt>
      <trkpt lat="45.46041" lon="5.90064">
        <ele>1050.77</ele>
        <time>2015-02-11T14:44:07Z</time>
      </trkpt>
      <trkpt lat="45.46049" lon="5.90035">
        <ele>1044.66</ele>
        <time>2015-02-11T14:44:12Z</time>
      </trkpt>
      <trkpt lat="45.46067" lon="5.90031">
        <ele>1040.36</ele>
        <time>2015-02-11T14:44:16Z</time>
      </trkpt>
      <trkpt lat="45.46085" lon="5.90041">
        <ele>1043.25</ele>
        <time>2015-02-11T14:44:25Z</time>
      </trkpt>
      <trkpt lat="45.46095" lon="5.90018">
        <ele>1031.08</ele>
        <time>2015-02-11T14:44:34Z</time>
      </trkpt>
      <trkpt lat="45.46115" lon="5.90003">
        <ele>1026.82</ele>
        <time>2015-02-11T14:45:36Z</time>
      </trkpt>
      <trkpt lat="45.46134" lon="5.89987">
        <ele>1022.06</ele>
        <time>2015-02-11T14:45:41Z</time>
      </trkpt>
      <trkpt lat="45.46149" lon="5.89967">
        <ele>1016.88</ele>
        <time>2015-02-11T14:45:46Z</time>
      </trkpt>
      <trkpt lat="45.46157" lon="5.8999">
        <ele>1021.24</ele>
        <time>2015-02-11T14:46:10Z</time>
      </trkpt>
      <trkpt lat="45.46156" lon="5.90016">
        <ele>1022.94</ele>
        <time>2015-02-11T14:46:56Z</time>
      </trkpt>
      <trkpt lat="45.46164" lon="5.9004">
        <ele>1014.23</ele>
        <time>2015-02-11T14:47:36Z</time>
      </trkpt>
      <trkpt lat="45.46184" lon="5.90039">
        <ele>1014.94</ele>
        <time>2015-02-11T14:47:43Z</time>
      </trkpt>
      <trkpt lat="45.46202" lon="5.90041">
        <ele>1011.14</ele>
        <time>2015-02-11T14:47:53Z</time>
      </trkpt>
      <trkpt lat="45.4622" lon="5.90028">
        <ele>1006.88</ele>
        <time>2015-02-11T14:48:23Z</time>
      </trkpt>
      <trkpt lat="45.46236" lon="5.90012">
        <ele>1002.88</ele>
        <time>2015-02-11T14:48:27Z</time>
      </trkpt>
      <trkpt lat="45.46252" lon="5.89996">
        <ele>999.82</ele>
        <time>2015-02-11T14:48:31Z</time>
      </trkpt>
      <trkpt lat="45.46273" lon="5.89983">
        <ele>996.31</ele>
        <time>2015-02-11T14:48:35Z</time>
      </trkpt>
      <trkpt lat="45.46293" lon="5.89985">
        <ele>995.03</ele>
        <time>2015-02-11T14:48:39Z</time>
      </trkpt>
      <trkpt lat="45.46308" lon="5.90004">
        <ele>994.35</ele>
        <time>2015-02-11T14:48:45Z</time>
      </trkpt>
      <trkpt lat="45.46326" lon="5.90004">
        <ele>996.13</ele>
        <time>2015-02-11T14:51:14Z</time>
      </trkpt>
      <trkpt lat="45.46308" lon="5.90001">
        <ele>1004.47</ele>
        <time>2015-02-11T14:51:32Z</time>
      </trkpt>
      <trkpt lat="45.46292" lon="5.89986">
        <ele>987.63</ele>
        <time>2015-02-11T15:12:34Z</time>
      </trkpt>
      <trkpt lat="45.46274" lon="5.89992">
        <ele>982.17</ele>
        <time>2015-02-11T15:12:47Z</time>
      </trkpt>
      <trkpt lat="45.46258" lon="5.90006">
        <ele>983.53</ele>
        <time>2015-02-11T15:13:00Z</time>
      </trkpt>
      <trkpt lat="45.46242" lon="5.90021">
        <ele>978.44</ele>
        <time>2015-02-11T15:13:17Z</time>
      </trkpt>
      <trkpt lat="45.46229" lon="5.90038">
        <ele>985.84</ele>
        <time>2015-02-11T15:13:46Z</time>
      </trkpt>
      <trkpt lat="45.46213" lon="5.90052">
        <ele>1005.55</ele>
        <time>2015-02-11T15:14:13Z</time>
      </trkpt>
      <trkpt lat="45.46198" lon="5.90067">
        <ele>1004.86</ele>
        <time>2015-02-11T15:14:53Z</time>
      </trkpt>
      <trkpt lat="45.46182" lon="5.9008">
        <ele>1008.4</ele>
        <time>2015-02-11T15:15:18Z</time>
      </trkpt>
      <trkpt lat="45.46169" lon="5.90097">
        <ele>1011.61</ele>
        <time>2015-02-11T15:15:40Z</time>
      </trkpt>
      <trkpt lat="45.46152" lon="5.90108">
        <ele>1012.04</ele>
        <time>2015-02-11T15:16:10Z</time>
      </trkpt>
      <trkpt lat="45.46135" lon="5.90118">
        <ele>1026.49</ele>
        <time>2015-02-11T15:16:45Z</time>
      </trkpt>
      <trkpt lat="45.46118" lon="5.90129">
        <ele>1033.88</ele>
        <time>2015-02-11T15:17:06Z</time>
      </trkpt>
      <trkpt lat="45.461" lon="5.90138">
        <ele>1033.16</ele>
        <time>2015-02-11T15:17:28Z</time>
      </trkpt>
      <trkpt lat="45.46084" lon="5.90149">
        <ele>1041.58</ele>
        <time>2015-02-11T15:17:57Z</time>
      </trkpt>
      <trkpt lat="45.4607" lon="5.90166">
        <ele>1047.41</ele>
        <time>2015-02-11T15:18:36Z</time>
      </trkpt>
      <trkpt lat="45.46057" lon="5.90184">
        <ele>1056.31</ele>
        <time>2015-02-11T15:19:02Z</time>
      </trkpt>
      <trkpt lat="45.4604" lon="5.90195">
        <ele>1068.68</ele>
        <time>2015-02-11T15:19:53Z</time>
      </trkpt>
      <trkpt lat="45.46023" lon="5.90203">
        <ele>1078.28</ele>
        <time>2015-02-11T15:20:18Z</time>
      </trkpt>
      <trkpt lat="45.4603" lon="5.90227">
        <ele>1084.87</ele>
        <time>2015-02-11T15:20:52Z</time>
      </trkpt>
      <trkpt lat="45.46023" lon="5.90251">
        <ele>1093.54</ele>
        <time>2015-02-11T15:21:28Z</time>
      </trkpt>
      <trkpt lat="45.46006" lon="5.90261">
        <ele>1095.32</ele>
        <time>2015-02-11T15:22:03Z</time>
      </trkpt>
      <trkpt lat="45.45989" lon="5.90272">
        <ele>1102.66</ele>
        <time>2015-02-11T15:22:49Z</time>
      </trkpt>
      <trkpt lat="45.45972" lon="5.90286">
        <ele>1112.68</ele>
        <time>2015-02-11T15:23:23Z</time>
      </trkpt>
      <trkpt lat="45.4596" lon="5.90305">
        <ele>1114.09</ele>
        <time>2015-02-11T15:23:56Z</time>
      </trkpt>
      <trkpt lat="45.45956" lon="5.9033">
        <ele>1119.22</ele>
        <time>2015-02-11T15:24:12Z</time>
      </trkpt>
      <trkpt lat="45.45957" lon="5.90356">
        <ele>1117.65</ele>
        <time>2015-02-11T15:24:30Z</time>
      </trkpt>
      <trkpt lat="45.45959" lon="5.90383">
        <ele>1121.05</ele>
        <time>2015-02-11T15:24:53Z</time>
      </trkpt>
      <trkpt lat="45.45961" lon="5.90409">
        <ele>1124.78</ele>
        <time>2015-02-11T15:25:10Z</time>
      </trkpt>
      <trkpt lat="45.45965" lon="5.90434">
        <ele>1128.76</ele>
        <time>2015-02-11T15:25:30Z</time>
      </trkpt>
      <trkpt lat="45.45957" lon="5.90458">
        <ele>1135.26</ele>
        <time>2015-02-11T15:25:56Z</time>
      </trkpt>
      <trkpt lat="45.45958" lon="5.90484">
        <ele>1140.69</ele>
        <time>2015-02-11T15:26:21Z</time>
      </trkpt>
      <trkpt lat="45.45948" lon="5.90507">
        <ele>1158.65</ele>
        <time>2015-02-11T15:27:01Z</time>
      </trkpt>
      <trkpt lat="45.45948" lon="5.90533">
        <ele>1163.67</ele>
        <time>2015-02-11T15:27:21Z</time>
      </trkpt>
      <trkpt lat="45.4594" lon="5.90556">
        <ele>1169.84</ele>
        <time>2015-02-11T15:27:43Z</time>
      </trkpt>
      <trkpt lat="45.45937" lon="5.90582">
        <ele>1170.71</ele>
        <time>2015-02-11T15:28:05Z</time>
      </trkpt>
      <trkpt lat="45.45933" lon="5.90608">
        <ele>1175.06</ele>
        <time>2015-02-11T15:28:29Z</time>
      </trkpt>
      <trkpt lat="45.45929" lon="5.90633">
        <ele>1181.47</ele>
        <time>2015-02-11T15:28:56Z</time>
      </trkpt>
      <trkpt lat="45.45937" lon="5.90656">
        <ele>1188.12</ele>
        <time>2015-02-11T15:30:25Z</time>
      </trkpt>
      <trkpt lat="45.45937" lon="5.90622">
        <ele>1179.89</ele>
        <time>2015-02-11T15:40:07Z</time>
      </trkpt>
      <trkpt lat="45.45948" lon="5.90597">
        <ele>1177.51</ele>
        <time>2015-02-11T15:40:10Z</time>
      </trkpt>
      <trkpt lat="45.4596" lon="5.90566">
        <ele>1172.85</ele>
        <time>2015-02-11T15:40:14Z</time>
      </trkpt>
      <trkpt lat="45.45951" lon="5.90538">
        <ele>1167.75</ele>
        <time>2015-02-11T15:40:17Z</time>
      </trkpt>
      <trkpt lat="45.4596" lon="5.90508">
        <ele>1162.31</ele>
        <time>2015-02-11T15:40:21Z</time>
      </trkpt>
      <trkpt lat="45.4596" lon="5.90482">
        <ele>1157.74</ele>
        <time>2015-02-11T15:40:23Z</time>
      </trkpt>
      <trkpt lat="45.45973" lon="5.90458">
        <ele>1155.84</ele>
        <time>2015-02-11T15:40:25Z</time>
      </trkpt>
      <trkpt lat="45.4599" lon="5.90436">
        <ele>1153.87</ele>
        <time>2015-02-11T15:40:27Z</time>
      </trkpt>
      <trkpt lat="45.45987" lon="5.90397">
        <ele>1146.63</ele>
        <time>2015-02-11T15:40:30Z</time>
      </trkpt>
      <trkpt lat="45.46" lon="5.90373">
        <ele>1138.1</ele>
        <time>2015-02-11T15:40:33Z</time>
      </trkpt>
      <trkpt lat="45.45996" lon="5.90341">
        <ele>1132.03</ele>
        <time>2015-02-11T15:40:36Z</time>
      </trkpt>
      <trkpt lat="45.46019" lon="5.90337">
        <ele>1123.51</ele>
        <time>2015-02-11T15:40:40Z</time>
      </trkpt>
      <trkpt lat="45.46031" lon="5.90312">
        <ele>1117.46</ele>
        <time>2015-02-11T15:40:43Z</time>
      </trkpt>
      <trkpt lat="45.46021" lon="5.90282">
        <ele>1112.45</ele>
        <time>2015-02-11T15:40:46Z</time>
      </trkpt>
      <trkpt lat="45.46043" lon="5.90274">
        <ele>1107.32</ele>
        <time>2015-02-11T15:40:49Z</time>
      </trkpt>
      <trkpt lat="45.46049" lon="5.90242">
        <ele>1101.06</ele>
        <time>2015-02-11T15:40:52Z</time>
      </trkpt>
      <trkpt lat="45.46044" lon="5.90214">
        <ele>1094.53</ele>
        <time>2015-02-11T15:40:55Z</time>
      </trkpt>
      <trkpt lat="45.46064" lon="5.90215">
        <ele>1090.29</ele>
        <time>2015-02-11T15:40:57Z</time>
      </trkpt>
      <trkpt lat="45.46084" lon="5.90212">
        <ele>1085.48</ele>
        <time>2015-02-11T15:40:59Z</time>
      </trkpt>
      <trkpt lat="45.46106" lon="5.90197">
        <ele>1083.03</ele>
        <time>2015-02-11T15:41:01Z</time>
      </trkpt>
      <trkpt lat="45.46121" lon="5.9017">
        <ele>1073.9</ele>
        <time>2015-02-11T15:41:04Z</time>
      </trkpt>
      <trkpt lat="45.46142" lon="5.90151">
        <ele>1060.01</ele>
        <time>2015-02-11T15:41:07Z</time>
      </trkpt>
      <trkpt lat="45.4616" lon="5.90136">
        <ele>1049.41</ele>
        <time>2015-02-11T15:41:09Z</time>
      </trkpt>
      <trkpt lat="45.46174" lon="5.90107">
        <ele>1041.26</ele>
        <time>2015-02-11T15:41:11Z</time>
      </trkpt>
      <trkpt lat="45.46192" lon="5.90085">
        <ele>1032.97</ele>
        <time>2015-02-11T15:41:13Z</time>
      </trkpt>
      <trkpt lat="45.46215" lon="5.90076">
        <ele>1027.9</ele>
        <time>2015-02-11T15:41:15Z</time>
      </trkpt>
      <trkpt lat="45.46241" lon="5.90068">
        <ele>1024.63</ele>
        <time>2015-02-11T15:41:17Z</time>
      </trkpt>
      <trkpt lat="45.46252" lon="5.90035">
        <ele>1021.32</ele>
        <time>2015-02-11T15:41:19Z</time>
      </trkpt>
      <trkpt lat="45.46265" lon="5.90011">
        <ele>1017.74</ele>
        <time>2015-02-11T15:41:21Z</time>
      </trkpt>
      <trkpt lat="45.46277" lon="5.89992">
        <ele>1013.09</ele>
        <time>2015-02-11T15:41:23Z</time>
      </trkpt>
      <trkpt lat="45.4629" lon="5.8997">
        <ele>1003.53</ele>
        <time>2015-02-11T15:41:26Z</time>
      </trkpt>
      <trkpt lat="45.46295" lon="5.89941">
        <ele>995.52</ele>
        <time>2015-02-11T15:41:31Z</time>
      </trkpt>
      <trkpt lat="45.46285" lon="5.89917">
        <ele>993.18</ele>
        <time>2015-02-11T15:41:36Z</time>
      </trkpt>
      <trkpt lat="45.46289" lon="5.89891">
        <ele>991.42</ele>
        <time>2015-02-11T15:41:41Z</time>
      </trkpt>
      <trkpt lat="45.463" lon="5.8987">
        <ele>982.98</ele>
        <time>2015-02-11T15:42:15Z</time>
      </trkpt>
      <trkpt lat="45.46317" lon="5.89879">
        <ele>980.96</ele>
        <time>2015-02-11T15:42:26Z</time>
      </trkpt>
      <trkpt lat="45.46331" lon="5.89895">
        <ele>980.96</ele>
        <time>2015-02-11T15:42:40Z</time>
      </trkpt>
      <trkpt lat="45.46345" lon="5.89912">
        <ele>980.84</ele>
        <time>2015-02-11T15:46:28Z</time>
      </trkpt>
    </trkseg>
  </trk>
</gpx>